Home > Products > Valid Products > TAF

000
FTUS46 KLOX 310900 AAA
TAFSBP
TAF AMD
KSBP 310915Z 3109/0106 VRB03KT P6SM SKC
     FM311200 VRB03KT 4SM BR BKN003
     FM311500 33006KT P6SM SKC
     FM311800 31012KT P6SM SCT250
     FM312000 31020G30KT P6SM SCT250
     FM010200 31015KT P6SM SKC=



000
FTUS46 KLOX 310900 AAB
TAFSBA
TAF AMD
KSBA 310903Z 3109/0106 VRB03KT 6SM BR SCT006
     FM311000 VRB03KT 3SM BR OVC005
     FM311800 18008KT P6SM SKC
     FM312100 24008KT P6SM SCT250
     FM010400 VRB03KT P6SM SKC=



000
FTUS46 KLOX 310800 AAB
TAFLAX
TAF AMD
KLAX 310850Z 3109/0112 VRB04KT 5SM BR SCT006
     FM311100 VRB03KT 4SM BR OVC008
     FM311800 24006KT 5SM HZ SCT250
     FM312100 25012KT P6SM SCT250
     FM010200 24006KT P6SM SCT250
     FM010600 VRB03KT P6SM BKN010
     FM011000 12006KT P6SM BKN010=



000
FTUS46 KLOX 310800 AAB
TAFLAX
TAF AMD
KLAX 310850Z 3109/0112 VRB04KT 5SM BR SCT006
     FM311100 VRB03KT 4SM BR OVC008
     FM311800 24006KT 5SM HZ SCT250
     FM312100 25012KT P6SM SCT250
     FM010200 24006KT P6SM SCT250
     FM010600 VRB03KT P6SM BKN010
     FM011000 12006KT P6SM BKN010=



000
FTUS46 KLOX 310800 AAA
TAFLAX
TAF AMD
KLAX 310815Z 3108/0112 VRB03KT 4SM BR OVC006
     FM310900 VRB04KT 5SM BR SCT006
     FM311200 VRB03KT 4SM BR OVC008
     FM311800 24006KT 5SM HZ SCT250
     FM312100 25012KT P6SM SCT250
     FM010200 24006KT P6SM SCT250
     FM010600 VRB03KT P6SM BKN010
     FM011000 12006KT P6SM BKN010=



000
FTUS46 KLOX 310600 AAA
TAFSBA
TAF AMD
KSBA 310641Z 3107/0106 VRB03KT 5SM BR BKN006
     FM311000 VRB03KT 2SM BR OVC003
     FM311600 VRB04KT 3SM BR BKN005
     FM311800 18008KT P6SM SKC
     FM312100 24008KT P6SM SCT250
     FM010400 VRB03KT P6SM SKC=



000
FTUS46 KLOX 310600 AAA
TAFSBA
TAF AMD
KSBA 310641Z 3107/0106 VRB03KT 5SM BR BKN006
     FM311000 VRB03KT 2SM BR OVC003
     FM311600 VRB04KT 3SM BR BKN005
     FM311800 18008KT P6SM SKC
     FM312100 24008KT P6SM SCT250
     FM010400 VRB03KT P6SM SKC=



000
FTUS46 KLOX 310500 CCA
TAFSMX
TAF COR
KSMX 310545Z 3106/0106 VRB03KT 4SM BR BKN010
     FM310700 VRB03KT 3SM BR OVC006
     FM311400 VRB03KT P6SM SCT250
     FM311800 33012KT P6SM SCT250
     FM312100 31020G28KT P6SM SCT250
     FM010200 31012KT P6SM SKC=



000
FTUS46 KLOX 310500 CCA
TAFSMX
TAF COR
KSMX 310545Z 3106/0106 VRB03KT 4SM BR BKN010
     FM310700 VRB03KT 3SM BR OVC006
     FM311400 VRB03KT P6SM SCT250
     FM311800 33012KT P6SM SCT250
     FM312100 31020G28KT P6SM SCT250
     FM010200 31012KT P6SM SKC=



000
FTUS46 KLOX 310500
TAFSMX
TAF
KSMX 310523Z 3106/0106 VRB03KT 6SM BR SKC
     FM310800 VRB03KT 3SM BR BKN005
     FM311400 VRB03KT P6SM SCT250
     FM311800 33012KT P6SM SCT250
     FM312100 31020G28KT P6SM SCT250
     FM010200 31012KT P6SM SKC=



000
FTUS46 KLOX 310500
TAFVNY
TAF
KVNY 310523Z 3106/0106 VRB03KT P6SM SKC
     FM311300 VRB03KT 2SM BR OVC004
     FM311600 VRB03KT P6SM SCT250
     FM312100 15006KT P6SM SCT250
     FM010400 VRB03KT P6SM SCT250=



000
FTUS46 KLOX 310500
TAFWJF
TAF
KWJF 310523Z 3106/0106 26010KT P6SM SKC
     FM311400 26012KT P6SM SKC
     FM311800 26018G25KT P6SM SKC
     FM312100 26028G38KT P6SM SKC
     FM010200 26018G25KT P6SM SKC=



000
FTUS46 KLOX 310500
TAFSBP
TAF
KSBP 310523Z 3106/0106 VRB03KT P6SM SKC
     FM311000 VRB03KT 4SM BR BKN003
     FM311500 33006KT P6SM SKC
     FM311800 31012KT P6SM SCT250
     FM312000 31020G30KT P6SM SCT250
     FM010200 31015KT P6SM SKC=



000
FTUS46 KLOX 310500
TAFLGB
TAF
KLGB 310523Z 3106/0106 VRB03KT P6SM SKC
     FM311000 VRB03KT 3SM BR OVC005
     FM311500 VRB03KT 4SM BR OVC007
     FM311800 VRB03KT 4SM HZ SCT250
     FM312000 19008KT 6SM HZ SCT250
     FM312300 30008KT P6SM SCT250
     FM010400 VRB03KT P6SM SCT250=



000
FTUS46 KLOX 310500
TAFLAX
TAF
KLAX 310523Z 3106/0112 27006KT P6SM OVC004
     FM310800 VRB03KT 4SM BR OVC004
     FM311400 VRB03KT 4SM BR OVC008
     FM311800 24006KT 5SM HZ SCT250
     FM312100 25012KT P6SM SCT250
     FM010200 24006KT P6SM SCT250
     FM010600 VRB03KT P6SM BKN010
     FM011000 12006KT P6SM BKN010=



000
FTUS46 KLOX 310500
TAFPRB
TAF
KPRB 310523Z 3106/0106 30014KT P6SM SKC
     FM310900 VRB03KT P6SM SKC
     FM311300 VRB03KT 1/2SM FG OVC001
     FM311600 VRB03KT P6SM SKC
     FM311800 32007KT P6SM SCT250
     FM312000 32012G18KT P6SM SCT250
     FM312300 33018G25KT P6SM SCT250
     FM010300 33012KT P6SM SKC=



000
FTUS46 KLOX 310500
TAFPMD
TAF
KPMD 310523Z 3106/0106 28010KT P6SM SKC
     FM311800 28015G25KT P6SM SKC
     FM312100 28022G32KT P6SM SKC
     FM010300 28018KT P6SM SKC=



000
FTUS46 KLOX 310500
TAFSBA
TAF
KSBA 310523Z 3106/0106 VRB03KT P6SM SKC
     FM310700 VRB03KT 2SM BR OVC002
     FM311600 VRB04KT 3SM BR BKN005
     FM311800 18008KT P6SM SKC
     FM312100 24008KT P6SM SCT250
     FM010400 VRB03KT P6SM SKC=



000
FTUS46 KLOX 310500
TAFBUR
TAF
KBUR 310523Z 3106/0106 VRB03KT P6SM SKC
     FM311200 VRB03KT 2SM BR OVC004
     FM311600 VRB03KT P6SM SCT250
     FM312100 18008KT P6SM SCT250
     FM010400 VRB03KT P6SM SCT250=



000
FTUS46 KLOX 310500
TAFSMX
TAF
KSMX 310523Z 3106/0106 VRB03KT 6SM BR SKC
     FM310800 VRB03KT 3SM BR BKN005
     FM311400 VRB03KT P6SM SCT250
     FM311800 33012KT P6SM SCT250
     FM312100 31020G28KT P6SM SCT250
     FM010200 31012KT P6SM SKC=



000
FTUS46 KLOX 310500
TAFVNY
TAF
KVNY 310523Z 3106/0106 VRB03KT P6SM SKC
     FM311300 VRB03KT 2SM BR OVC004
     FM311600 VRB03KT P6SM SCT250
     FM312100 15006KT P6SM SCT250
     FM010400 VRB03KT P6SM SCT250=



000
FTUS46 KLOX 310500
TAFWJF
TAF
KWJF 310523Z 3106/0106 26010KT P6SM SKC
     FM311400 26012KT P6SM SKC
     FM311800 26018G25KT P6SM SKC
     FM312100 26028G38KT P6SM SKC
     FM010200 26018G25KT P6SM SKC=



000
FTUS46 KLOX 310500
TAFPRB
TAF
KPRB 310523Z 3106/0106 30014KT P6SM SKC
     FM310900 VRB03KT P6SM SKC
     FM311300 VRB03KT 1/2SM FG OVC001
     FM311600 VRB03KT P6SM SKC
     FM311800 32007KT P6SM SCT250
     FM312000 32012G18KT P6SM SCT250
     FM312300 33018G25KT P6SM SCT250
     FM010300 33012KT P6SM SKC=



000
FTUS46 KLOX 310500
TAFPMD
TAF
KPMD 310523Z 3106/0106 28010KT P6SM SKC
     FM311800 28015G25KT P6SM SKC
     FM312100 28022G32KT P6SM SKC
     FM010300 28018KT P6SM SKC=



000
FTUS46 KLOX 310500
TAFSBP
TAF
KSBP 310523Z 3106/0106 VRB03KT P6SM SKC
     FM311000 VRB03KT 4SM BR BKN003
     FM311500 33006KT P6SM SKC
     FM311800 31012KT P6SM SCT250
     FM312000 31020G30KT P6SM SCT250
     FM010200 31015KT P6SM SKC=



000
FTUS46 KLOX 310500
TAFLGB
TAF
KLGB 310523Z 3106/0106 VRB03KT P6SM SKC
     FM311000 VRB03KT 3SM BR OVC005
     FM311500 VRB03KT 4SM BR OVC007
     FM311800 VRB03KT 4SM HZ SCT250
     FM312000 19008KT 6SM HZ SCT250
     FM312300 30008KT P6SM SCT250
     FM010400 VRB03KT P6SM SCT250=



000
FTUS46 KLOX 310500
TAFLAX
TAF
KLAX 310523Z 3106/0112 27006KT P6SM OVC004
     FM310800 VRB03KT 4SM BR OVC004
     FM311400 VRB03KT 4SM BR OVC008
     FM311800 24006KT 5SM HZ SCT250
     FM312100 25012KT P6SM SCT250
     FM010200 24006KT P6SM SCT250
     FM010600 VRB03KT P6SM BKN010
     FM011000 12006KT P6SM BKN010=



000
FTUS46 KLOX 310500
TAFSBA
TAF
KSBA 310523Z 3106/0106 VRB03KT P6SM SKC
     FM310700 VRB03KT 2SM BR OVC002
     FM311600 VRB04KT 3SM BR BKN005
     FM311800 18008KT P6SM SKC
     FM312100 24008KT P6SM SCT250
     FM010400 VRB03KT P6SM SKC=



000
FTUS46 KLOX 310500
TAFBUR
TAF
KBUR 310523Z 3106/0106 VRB03KT P6SM SKC
     FM311200 VRB03KT 2SM BR OVC004
     FM311600 VRB03KT P6SM SCT250
     FM312100 18008KT P6SM SCT250
     FM010400 VRB03KT P6SM SCT250=



000
FTUS46 KLOX 310400 AAB
TAFLAX
TAF AMD
KLAX 310442Z 3105/0106 27006KT 6SM BR OVC006
     FM310800 VRB03KT 4SM BR OVC004
     FM311400 VRB03KT 4SM BR OVC008
     FM311800 24007KT 5SM HZ SCT250
     FM312100 25012KT P6SM SCT250
     FM010200 24007KT P6SM SCT250
     FM010400 24005KT P6SM BKN010=



000
FTUS46 KLOX 310300 AAA
TAFLAX
TAF AMD
KLAX 310310Z 3103/0106 27008KT 6SM BR OVC004
     FM310500 VRB03KT 4SM BR OVC004
     FM311400 VRB03KT 4SM BR OVC008
     FM311800 24007KT 5SM HZ SCT250
     FM312100 25012KT P6SM SCT250
     FM010200 24007KT P6SM SCT250
     FM010400 24005KT P6SM BKN010=



000
FTUS46 KLOX 310300 AAA
TAFPRB
TAF AMD
KPRB 310300Z 3103/3124 30014KT P6SM SKC
     FM310900 VRB03KT P6SM SKC
     FM311300 VRB02KT 1/2SM FG OVC001
     FM311600 VRB03KT P6SM SKC
     FM311800 32007KT P6SM SCT250
     FM312000 32012G17KT P6SM SCT250
     FM312300 33018G25KT P6SM SCT250=



000
FTUS46 KLOX 310200 AAA
TAFSBA
TAF AMD
KSBA 310216Z 3102/3124 19004KT 5SM HZ SKC
     FM310400 VRB03KT P6SM SKC
     FM310800 VRB03KT 2SM BR OVC002
     FM311600 VRB04KT 3SM BR BKN005
     FM311800 18008KT P6SM SKC
     FM312100 24008KT P6SM SCT250=



000
FTUS46 KLOX 310200 AAA
TAFSBA
TAF AMD
KSBA 310216Z 3102/3124 19004KT 5SM HZ SKC
     FM310400 VRB03KT P6SM SKC
     FM310800 VRB03KT 2SM BR OVC002
     FM311600 VRB04KT 3SM BR BKN005
     FM311800 18008KT P6SM SKC
     FM312100 24008KT P6SM SCT250=



000
FTUS46 KLOX 302300 RRA
TAFLGB
TAF
KLGB 302340Z 3100/3124 29008KT P6SM SKC
     FM310500 VRB03KT P6SM SKC
     FM310700 VRB03KT 3SM BR OVC005
     FM311500 VRB03KT 4SM BR OVC007
     FM311800 20003KT 4SM HZ SCT250
     FM312000 19008KT 6SM HZ SCT250
     FM312300 29008KT P6SM SCT250=



000
FTUS46 KLOX 302300 RRA
TAFVNY
TAF
KVNY 302340Z 3100/3124 12008KT P6SM SKC
     FM310300 VRB03KT P6SM SKC
     FM311800 11004KT P6SM SCT250
     FM312100 15006KT P6SM SCT250=



000
FTUS46 KLOX 302300 RRA
TAFSBA
TAF
KSBA 302340Z 3100/3124 25012KT P6SM FEW004
     FM310300 VRB03KT P6SM SKC
     FM310800 VRB03KT 2SM BR OVC002
     FM311600 VRB04KT 3SM BR BKN005
     FM311800 18008KT P6SM SKC
     FM312100 24008KT P6SM SCT250=



000
FTUS46 KLOX 302300 RRA
TAFPMD
TAF
KPMD 302340Z 3100/3124 25014G20KT P6SM SKC
     FM310200 24012KT P6SM SKC
     FM310400 23008KT P6SM SKC
     FM311800 28016G23KT P6SM SKC
     FM312100 28023G30KT P6SM SKC=



000
FTUS46 KLOX 302300 RRA
TAFPRB
TAF
KPRB 302340Z 3100/3124 29005KT P6SM SKC
     FM310200 27010KT P6SM SKC
     FM310900 VRB03KT P6SM SKC
     FM311300 VRB02KT 1/2SM FG OVC001
     FM311600 VRB03KT P6SM SKC
     FM311800 32007KT P6SM SCT250
     FM312000 32012G17KT P6SM SCT250
     FM312300 33018G25KT P6SM SCT250=



000
FTUS46 KLOX 302300 RRA
TAFLGB
TAF
KLGB 302340Z 3100/3124 29008KT P6SM SKC
     FM310500 VRB03KT P6SM SKC
     FM310700 VRB03KT 3SM BR OVC005
     FM311500 VRB03KT 4SM BR OVC007
     FM311800 20003KT 4SM HZ SCT250
     FM312000 19008KT 6SM HZ SCT250
     FM312300 29008KT P6SM SCT250=



000
FTUS46 KLOX 302300 RRA
TAFLAX
TAF
KLAX 302340Z 3100/0106 28011KT P6SM FEW012
     FM310200 24007KT P6SM BKN007
     FM310500 VRB03KT 4SM BR OVC005
     FM311400 VRB03KT 4SM BR OVC008
     FM311800 24007KT 5SM HZ SCT250
     FM312100 25012KT P6SM SCT250
     FM010200 24007KT P6SM SCT250
     FM010400 24005KT P6SM BKN010=



000
FTUS46 KLOX 302300 RRA
TAFBUR
TAF
KBUR 302340Z 3100/3124 17008KT P6SM SKC
     FM310400 VRB03KT P6SM SKC
     FM311800 17004KT P6SM SCT250
     FM312100 19009KT P6SM SCT250=



000
FTUS46 KLOX 302300 RRA
TAFPRB
TAF
KPRB 302340Z 3100/3124 29005KT P6SM SKC
     FM310200 27010KT P6SM SKC
     FM310900 VRB03KT P6SM SKC
     FM311300 VRB02KT 1/2SM FG OVC001
     FM311600 VRB03KT P6SM SKC
     FM311800 32007KT P6SM SCT250
     FM312000 32012G17KT P6SM SCT250
     FM312300 33018G25KT P6SM SCT250=



000
FTUS46 KLOX 302300 RRA
TAFSBA
TAF
KSBA 302340Z 3100/3124 25012KT P6SM FEW004
     FM310300 VRB03KT P6SM SKC
     FM310800 VRB03KT 2SM BR OVC002
     FM311600 VRB04KT 3SM BR BKN005
     FM311800 18008KT P6SM SKC
     FM312100 24008KT P6SM SCT250=



000
FTUS46 KLOX 302300 RRA
TAFVNY
TAF
KVNY 302340Z 3100/3124 12008KT P6SM SKC
     FM310300 VRB03KT P6SM SKC
     FM311800 11004KT P6SM SCT250
     FM312100 15006KT P6SM SCT250=



000
FTUS46 KLOX 302300 RRA
TAFPMD
TAF
KPMD 302340Z 3100/3124 25014G20KT P6SM SKC
     FM310200 24012KT P6SM SKC
     FM310400 23008KT P6SM SKC
     FM311800 28016G23KT P6SM SKC
     FM312100 28023G30KT P6SM SKC=



000
FTUS46 KLOX 302300 RRA
TAFWJF
TAF
KWJF 302340Z 3100/3124 23014G20KT P6SM SKC
     FM310300 25012KT P6SM SKC
     FM310500 24009KT P6SM SKC
     FM311400 26013KT P6SM SKC
     FM311800 26018G25KT P6SM SKC
     FM312100 26025G35KT P6SM SKC=



000
FTUS46 KLOX 302300 RRA
TAFSMX
TAF
KSMX 302340Z 3100/3124 32014KT P6SM SKC
     FM310300 30006KT P6SM SKC
     FM310600 VRB03KT 3SM BR BKN005
     FM311400 34004KT P6SM SCT250
     FM311800 33012KT P6SM SCT250
     FM312100 31020G28KT P6SM SCT250=



000
FTUS46 KLOX 302300 RRA
TAFSBP
TAF
KSBP 302340Z 3100/3124 31015KT P6SM SKC
     FM310300 31008KT P6SM SKC
     FM310500 VRB03KT P6SM SKC
     FM311000 34005KT 4SM BR BKN003
     FM311400 33006KT P6SM SKC
     FM311800 31011KT P6SM SCT250
     FM312000 31020G28KT P6SM SCT250=



000
FTUS46 KLOX 302300 RRA
TAFWJF
TAF
KWJF 302340Z 3100/3124 23014G20KT P6SM SKC
     FM310300 25012KT P6SM SKC
     FM310500 24009KT P6SM SKC
     FM311400 26013KT P6SM SKC
     FM311800 26018G25KT P6SM SKC
     FM312100 26025G35KT P6SM SKC=



000
FTUS46 KLOX 302300 RRA
TAFSMX
TAF
KSMX 302340Z 3100/3124 32014KT P6SM SKC
     FM310300 30006KT P6SM SKC
     FM310600 VRB03KT 3SM BR BKN005
     FM311400 34004KT P6SM SCT250
     FM311800 33012KT P6SM SCT250
     FM312100 31020G28KT P6SM SCT250=



000
FTUS46 KLOX 302300 RRA
TAFSBP
TAF
KSBP 302340Z 3100/3124 31015KT P6SM SKC
     FM310300 31008KT P6SM SKC
     FM310500 VRB03KT P6SM SKC
     FM311000 34005KT 4SM BR BKN003
     FM311400 33006KT P6SM SKC
     FM311800 31011KT P6SM SCT250
     FM312000 31020G28KT P6SM SCT250=



000
FTUS46 KLOX 302300 RRA
TAFBUR
TAF
KBUR 302340Z 3100/3124 17008KT P6SM SKC
     FM310400 VRB03KT P6SM SKC
     FM311800 17004KT P6SM SCT250
     FM312100 19009KT P6SM SCT250=



000
FTUS46 KLOX 302300 RRA
TAFLAX
TAF
KLAX 302340Z 3100/0106 28011KT P6SM FEW012
     FM310200 24007KT P6SM BKN007
     FM310500 VRB03KT 4SM BR OVC005
     FM311400 VRB03KT 4SM BR OVC008
     FM311800 24007KT 5SM HZ SCT250
     FM312100 25012KT P6SM SCT250
     FM010200 24007KT P6SM SCT250
     FM010400 24005KT P6SM BKN010=



000
FTUS46 KLOX 302000 AAA
TAFLAX
TAF AMD
KLAX 302054Z 3021/3124 27011KT P6SM FEW017
     FM310300 24006KT P6SM SKC
     FM310600 VRB05KT 5SM BR BKN007
     FM310900 VRB03KT 3SM BR OVC005
     FM311600 VRB05KT 5SM BR BKN009
     FM311800 25005KT 6SM HZ SCT010=



000
FTUS46 KLOX 301900 AAA
TAFLGB
TAF AMD
KLGB 301958Z 3020/3118 19007KT 4SM HZ SKC
     FM302100 26008KT P6SM SKC
     FM310200 VRB05KT P6SM SKC
     FM310900 VRB03KT 4SM BR BKN005
     FM311700 VRB05KT 6SM HZ SCT010=



000
FTUS46 KLOX 301900 AAA
TAFLGB
TAF AMD
KLGB 301958Z 3020/3118 19007KT 4SM HZ SKC
     FM302100 26008KT P6SM SKC
     FM310200 VRB05KT P6SM SKC
     FM310900 VRB03KT 4SM BR BKN005
     FM311700 VRB05KT 6SM HZ SCT010=



000
FTUS46 KLOX 301700 AAA
TAFSBA
TAF AMD
KSBA 301756Z 3018/3118 16005KT P6SM SCT007
     FM301900 24007KT P6SM SKC
     FM310300 VRB05KT 4SM BR SCT004
     FM310800 VRB03KT 2SM BR OVC002
     FM311600 VRB04KT 3SM BR BKN005=



000
FTUS46 KLOX 301700 AAA
TAFSBA
TAF AMD
KSBA 301756Z 3018/3118 16005KT P6SM SCT007
     FM301900 24007KT P6SM SKC
     FM310300 VRB05KT 4SM BR SCT004
     FM310800 VRB03KT 2SM BR OVC002
     FM311600 VRB04KT 3SM BR BKN005=



000
FTUS46 KLOX 301700
TAFSBP
TAF
KSBP 301722Z 3018/3118 30006KT P6SM SKC
     FM301900 31012KT P6SM SKC
     FM310300 VRB05KT P6SM SKC
     FM311200 VRB03KT P6SM SCT200=



000
FTUS46 KLOX 301700
TAFSBA
TAF
KSBA 301722Z 3018/3118 24005KT 4SM BR BKN006
     FM301900 24007KT P6SM SKC
     FM310300 VRB05KT 4SM BR SCT004
     FM310800 VRB03KT 2SM BR OVC002
     FM311600 VRB04KT 3SM BR BKN005=



000
FTUS46 KLOX 301700
TAFLGB
TAF
KLGB 301722Z 3018/3118 02003KT 4SM BR SCT010
     FM301900 19006KT P6SM SKC
     FM310200 VRB05KT P6SM SKC
     FM310900 VRB03KT 4SM BR BKN005
     FM311700 VRB05KT 6SM HZ SCT010=



000
FTUS46 KLOX 301700
TAFPRB
TAF
KPRB 301722Z 3018/3118 00000KT P6SM SKC
     FM302300 28011KT P6SM SKC
     FM310600 VRB05KT P6SM SKC
     FM311200 VRB02KT P6SM SCT200=



000
FTUS46 KLOX 301700
TAFSMX
TAF
KSMX 301722Z 3018/3118 30006KT P6SM SKC
     FM302100 30014KT P6SM SKC
     FM310300 VRB05KT P6SM SKC
     FM310900 VRB03KT 5SM BR SCT200
     FM311600 31006KT P6SM SCT200=



000
FTUS46 KLOX 301700
TAFVNY
TAF
KVNY 301722Z 3018/3118 16005KT P6SM SKC
     FM302100 15009KT P6SM SKC
     FM310300 VRB05KT P6SM SKC=



000
FTUS46 KLOX 301700
TAFBUR
TAF
KBUR 301722Z 3018/3118 16005KT P6SM SKC
     FM302100 17008KT P6SM SKC
     FM310400 VRB05KT P6SM SKC=



000
FTUS46 KLOX 301700
TAFBUR
TAF
KBUR 301722Z 3018/3118 16005KT P6SM SKC
     FM302100 17008KT P6SM SKC
     FM310400 VRB05KT P6SM SKC=



000
FTUS46 KLOX 301700
TAFPMD
TAF
KPMD 301722Z 3018/3118 VRB05KT P6SM SKC
     FM302100 25010KT P6SM SKC
     FM310600 VRB05KT P6SM SKC
     FM311700 28012KT P6SM SCT200=



000
FTUS46 KLOX 301700
TAFVNY
TAF
KVNY 301722Z 3018/3118 16005KT P6SM SKC
     FM302100 15009KT P6SM SKC
     FM310300 VRB05KT P6SM SKC=



000
FTUS46 KLOX 301700
TAFSBP
TAF
KSBP 301722Z 3018/3118 30006KT P6SM SKC
     FM301900 31012KT P6SM SKC
     FM310300 VRB05KT P6SM SKC
     FM311200 VRB03KT P6SM SCT200=



000
FTUS46 KLOX 301700
TAFWJF
TAF
KWJF 301722Z 3018/3118 VRB05KT P6SM SKC
     FM302100 26012KT P6SM SKC
     FM310600 VRB05KT P6SM SKC
     FM311700 25012G20KT P6SM SCT200=



000
FTUS46 KLOX 301700
TAFPRB
TAF
KPRB 301722Z 3018/3118 00000KT P6SM SKC
     FM302300 28011KT P6SM SKC
     FM310600 VRB05KT P6SM SKC
     FM311200 VRB02KT P6SM SCT200=



000
FTUS46 KLOX 301700
TAFSBA
TAF
KSBA 301722Z 3018/3118 24005KT 4SM BR BKN006
     FM301900 24007KT P6SM SKC
     FM310300 VRB05KT 4SM BR SCT004
     FM310800 VRB03KT 2SM BR OVC002
     FM311600 VRB04KT 3SM BR BKN005=



000
FTUS46 KLOX 301700
TAFLGB
TAF
KLGB 301722Z 3018/3118 02003KT 4SM BR SCT010
     FM301900 19006KT P6SM SKC
     FM310200 VRB05KT P6SM SKC
     FM310900 VRB03KT 4SM BR BKN005
     FM311700 VRB05KT 6SM HZ SCT010=



000
FTUS46 KLOX 301700
TAFSMX
TAF
KSMX 301722Z 3018/3118 30006KT P6SM SKC
     FM302100 30014KT P6SM SKC
     FM310300 VRB05KT P6SM SKC
     FM310900 VRB03KT 5SM BR SCT200
     FM311600 31006KT P6SM SCT200=



000
FTUS46 KLOX 301700
TAFLAX
TAF
KLAX 301722Z 3018/3124 00000KT 5SM HZ SCT010
     FM301900 26012KT P6SM SKC
     FM310600 VRB05KT 5SM BR BKN007
     FM310900 VRB03KT 3SM BR OVC005
     FM311600 VRB05KT 5SM BR BKN009
     FM311800 25005KT 6SM HZ SCT010=



000
FTUS46 KLOX 301700
TAFPMD
TAF
KPMD 301722Z 3018/3118 VRB05KT P6SM SKC
     FM302100 25010KT P6SM SKC
     FM310600 VRB05KT P6SM SKC
     FM311700 28012KT P6SM SCT200=



000
FTUS46 KLOX 301700
TAFWJF
TAF
KWJF 301722Z 3018/3118 VRB05KT P6SM SKC
     FM302100 26012KT P6SM SKC
     FM310600 VRB05KT P6SM SKC
     FM311700 25012G20KT P6SM SCT200=



000
FTUS46 KLOX 301600 AAD
TAFLAX
TAF AMD
KLAX 301610Z 3016/3118 00000KT 3SM BR SCT009 BKN011
     FM301700 26005KT 6SM HZ SCT011
     FM301900 26012KT P6SM SKC
     FM310800 VRB05KT 5SM BR BKN008
     FM311300 VRB03KT 1SM BR OVC007
     FM311600 VRB05KT 2SM BR BKN003=



000
FTUS46 KLOX 301600 AAA
TAFSBA
TAF AMD
KSBA 301608Z 3016/3112 00000KT 2SM BR OVC004
     FM301700 VRB03KT 4SM BR BKN007
     FM301800 18006KT P6SM FEW010
     FM302100 23007KT P6SM SKC
     FM310200 VRB05KT 4SM BR SCT004
     FM311000 VRB03KT 2SM BR BKN002=



000
FTUS46 KLOX 301500 AAC
TAFLGB
TAF AMD
KLGB 301522Z 3015/3112 30006KT 3SM BR OVC007
     FM301600 VRB03KT 4SM BR BKN009
     FM301700 VRB04KT P6SM SKC
     FM302000 19007KT P6SM SKC
     FM310100 VRB05KT P6SM SKC
     FM311100 VRB05KT 5SM BR BKN005=



000
FTUS46 KLOX 301500 AAC
TAFLGB
TAF AMD
KLGB 301522Z 3015/3112 30006KT 3SM BR OVC007
     FM301600 VRB03KT 4SM BR BKN009
     FM301700 VRB04KT P6SM SKC
     FM302000 19007KT P6SM SKC
     FM310100 VRB05KT P6SM SKC
     FM311100 VRB05KT 5SM BR BKN005=



000
FTUS46 KLOX 301400 AAC
TAFLAX
TAF AMD
KLAX 301453Z 3015/3118 25004KT 3SM BR OVC007
     FM301600 25006KT 6SM BR SCT008
     FM301900 26012KT P6SM SKC
     FM310800 VRB05KT 5SM BR BKN008
     FM311300 VRB03KT 1SM BR OVC007
     FM311600 VRB05KT 2SM BR BKN003=



000
FTUS46 KLOX 301400 AAB
TAFLGB
TAF AMD
KLGB 301401Z 3014/3112 36003KT 4SM BR OVC005
     FM301600 VRB03KT 6SM BR SCT006
     FM301700 VRB04KT P6SM SKC
     FM302000 19007KT P6SM SKC
     FM310100 VRB05KT P6SM SKC
     FM311100 VRB05KT 5SM BR BKN005=



000
FTUS46 KLOX 301300 AAA
TAFLGB
TAF AMD
KLGB 301323Z 3013/3112 VRB05KT 4SM BR OVC004
     FM301400 VRB03KT 6SM BR BKN006
     FM301600 VRB03KT P6SM SKC
     FM302000 19007KT P6SM SKC
     FM310100 VRB05KT P6SM SKC
     FM311100 VRB05KT 5SM BR BKN005=



000
FTUS46 KLOX 301300 AAA
TAFLGB
TAF AMD
KLGB 301323Z 3013/3112 VRB05KT 4SM BR OVC004
     FM301400 VRB03KT 6SM BR BKN006
     FM301600 VRB03KT P6SM SKC
     FM302000 19007KT P6SM SKC
     FM310100 VRB05KT P6SM SKC
     FM311100 VRB05KT 5SM BR BKN005=



000
FTUS46 KLOX 301300 AAB
TAFLAX
TAF AMD
KLAX 301322Z 3013/3118 VRB03KT 4SM BR BKN007
     FM301600 25006KT 6SM BR SCT008
     FM301900 26012KT P6SM SKC
     FM310800 VRB05KT 5SM BR BKN008
     FM311300 VRB03KT 1/2SM FG OVC007
     FM311600 VRB05KT 2SM BR BKN003=



000
FTUS46 KLOX 301300 AAB
TAFLAX
TAF AMD
KLAX 301322Z 3013/3118 VRB03KT 4SM BR BKN007
     FM301600 25006KT 6SM BR SCT008
     FM301900 26012KT P6SM SKC
     FM310800 VRB05KT 5SM BR BKN008
     FM311300 VRB03KT 1/2SM FG OVC007
     FM311600 VRB05KT 2SM BR BKN003=



000
FTUS46 KLOX 301300 AAA
TAFSMX
TAF AMD
KSMX 301321Z 3013/3112 VRB05KT 6SM BR SCT007
     FM301600 30006KT P6SM SKC
     FM302100 30014KT P6SM SKC
     FM310300 VRB05KT P6SM SKC
     FM310900 VRB03KT 5SM BR SKC=



000
FTUS46 KLOX 301100 AAA
TAFLAX
TAF AMD
KLAX 301148Z 3012/3118 VRB03KT 4SM BR BKN008
     FM301300 VRB03KT 1/2SM FG OVC007
     FM301400 VRB05KT 2SM BR BKN003
     FM301630 25006KT 4SM BR SCT004
     FM301900 26012KT P6SM SKC
     FM310800 VRB05KT 5SM BR BKN008
     FM311300 VRB03KT 1/2SM FG OVC007
     FM311600 VRB05KT 2SM BR BKN003=



000
FTUS46 KLOX 301100 AAA
TAFLAX
TAF AMD
KLAX 301148Z 3012/3118 VRB03KT 4SM BR BKN008
     FM301300 VRB03KT 1/2SM FG OVC007
     FM301400 VRB05KT 2SM BR BKN003
     FM301630 25006KT 4SM BR SCT004
     FM301900 26012KT P6SM SKC
     FM310800 VRB05KT 5SM BR BKN008
     FM311300 VRB03KT 1/2SM FG OVC007
     FM311600 VRB05KT 2SM BR BKN003=



000
FTUS46 KLOX 301100
TAFPRB
TAF
KPRB 301138Z 3012/3112 VRB05KT P6SM SKC
     FM302300 28008KT P6SM SKC
     FM310600 VRB05KT P6SM SKC=



000
FTUS46 KLOX 301100
TAFSBP
TAF
KSBP 301138Z 3012/3112 VRB03KT P6SM SKC
     FM301900 31012KT P6SM SKC
     FM310300 VRB05KT P6SM SKC=



000
FTUS46 KLOX 301100
TAFSMX
TAF
KSMX 301138Z 3012/3112 VRB05KT 6SM BR SCT007
     FM301300 VRB05KT 4SM BR BKN005
     FM301600 30006KT P6SM SKC
     FM302100 30014KT P6SM SKC
     FM310300 VRB05KT P6SM SKC
     FM310900 VRB03KT 5SM BR SKC=



000
FTUS46 KLOX 301100
TAFSMX
TAF
KSMX 301138Z 3012/3112 VRB05KT 6SM BR SCT007
     FM301300 VRB05KT 4SM BR BKN005
     FM301600 30006KT P6SM SKC
     FM302100 30014KT P6SM SKC
     FM310300 VRB05KT P6SM SKC
     FM310900 VRB03KT 5SM BR SKC=



000
FTUS46 KLOX 301100
TAFSBA
TAF
KSBA 301138Z 3012/3112 VRB03KT 4SM BR BKN002
     FM301300 16006KT 2SM BR BKN003
     FM301600 16006KT P6SM SKC
     FM302100 23007KT P6SM SKC
     FM310200 VRB05KT 4SM BR SCT004
     FM311000 VRB03KT 2SM BR BKN002=



000
FTUS46 KLOX 301100
TAFPRB
TAF
KPRB 301138Z 3012/3112 VRB05KT P6SM SKC
     FM302300 28008KT P6SM SKC
     FM310600 VRB05KT P6SM SKC=



000
FTUS46 KLOX 301100
TAFSBA
TAF
KSBA 301138Z 3012/3112 VRB03KT 4SM BR BKN002
     FM301300 16006KT 2SM BR BKN003
     FM301600 16006KT P6SM SKC
     FM302100 23007KT P6SM SKC
     FM310200 VRB05KT 4SM BR SCT004
     FM311000 VRB03KT 2SM BR BKN002=



000
FTUS46 KLOX 301100
TAFSBP
TAF
KSBP 301138Z 3012/3112 VRB03KT P6SM SKC
     FM301900 31012KT P6SM SKC
     FM310300 VRB05KT P6SM SKC=



000
FTUS46 KLOX 301100
TAFWJF
TAF
KWJF 301129Z 3012/3112 VRB05KT P6SM SKC
     FM302100 27010KT P6SM SKC
     FM310800 VRB05KT P6SM SKC=



000
FTUS46 KLOX 301100
TAFLGB
TAF
KLGB 301129Z 3012/3112 VRB05KT 5SM BR OVC005
     FM301300 VRB03KT 1/2SM FG OVC004
     FM301400 VRB03KT 2SM BR BKN003
     FM301600 VRB03KT P6SM SKC
     FM302000 19007KT P6SM SKC
     FM310100 VRB05KT P6SM SKC
     FM311100 VRB05KT 5SM BR BKN005=



000
FTUS46 KLOX 301100
TAFLAX
TAF
KLAX 301129Z 3012/3118 VRB03KT 6SM BR SCT008
     FM301300 VRB03KT 1/2SM FG OVC007
     FM301400 VRB05KT 2SM BR BKN003
     FM301630 25006KT 4SM BR SCT004
     FM301900 26012KT P6SM SKC
     FM310800 VRB05KT 5SM BR BKN008
     FM311300 VRB03KT 1/2SM FG OVC007
     FM311600 VRB05KT 2SM BR BKN003=



000
FTUS46 KLOX 301100
TAFVNY
TAF
KVNY 301129Z 3012/3112 VRB05KT P6SM SCT250
     FM302100 15008KT P6SM SKC
     FM310300 VRB05KT P6SM SKC=



000
FTUS46 KLOX 301100
TAFBUR
TAF
KBUR 301129Z 3012/3112 VRB05KT P6SM SCT250
     FM302000 17008KT P6SM SKC
     FM310400 VRB05KT P6SM SKC=



000
FTUS46 KLOX 301100
TAFPMD
TAF
KPMD 301129Z 3012/3112 VRB05KT P6SM SKC
     FM302100 27008KT P6SM SKC
     FM310900 VRB05KT P6SM SKC=



000
FTUS46 KLOX 301100
TAFBUR
TAF
KBUR 301129Z 3012/3112 VRB05KT P6SM SCT250
     FM302000 17008KT P6SM SKC
     FM310400 VRB05KT P6SM SKC=



000
FTUS46 KLOX 301100
TAFLGB
TAF
KLGB 301129Z 3012/3112 VRB05KT 5SM BR OVC005
     FM301300 VRB03KT 1/2SM FG OVC004
     FM301400 VRB03KT 2SM BR BKN003
     FM301600 VRB03KT P6SM SKC
     FM302000 19007KT P6SM SKC
     FM310100 VRB05KT P6SM SKC
     FM311100 VRB05KT 5SM BR BKN005=



000
FTUS46 KLOX 301100
TAFLAX
TAF
KLAX 301129Z 3012/3118 VRB03KT 6SM BR SCT008
     FM301300 VRB03KT 1/2SM FG OVC007
     FM301400 VRB05KT 2SM BR BKN003
     FM301630 25006KT 4SM BR SCT004
     FM301900 26012KT P6SM SKC
     FM310800 VRB05KT 5SM BR BKN008
     FM311300 VRB03KT 1/2SM FG OVC007
     FM311600 VRB05KT 2SM BR BKN003=



000
FTUS46 KLOX 301100
TAFWJF
TAF
KWJF 301129Z 3012/3112 VRB05KT P6SM SKC
     FM302100 27010KT P6SM SKC
     FM310800 VRB05KT P6SM SKC=



000
FTUS46 KLOX 301100
TAFPMD
TAF
KPMD 301129Z 3012/3112 VRB05KT P6SM SKC
     FM302100 27008KT P6SM SKC
     FM310900 VRB05KT P6SM SKC=



000
FTUS46 KLOX 301100
TAFVNY
TAF
KVNY 301129Z 3012/3112 VRB05KT P6SM SCT250
     FM302100 15008KT P6SM SKC
     FM310300 VRB05KT P6SM SKC=



000
FTUS46 KLOX 301100 AAE
TAFSBA
TAF AMD
KSBA 301119Z 3011/3106 VRB03KT 4SM BR BKN002
      TEMPO 3011/3015 1/4SM FG VV002
     FM301500 16006KT 2SM BR BKN003
     FM301700 16006KT P6SM SKC
     FM302100 23007KT P6SM SKC
     FM310200 VRB05KT 4SM BR SCT004=



000
FTUS46 KLOX 301100 AAE
TAFSBA
TAF AMD
KSBA 301119Z 3011/3106 VRB03KT 4SM BR BKN002
      TEMPO 3011/3015 1/4SM FG VV002
     FM301500 16006KT 2SM BR BKN003
     FM301700 16006KT P6SM SKC
     FM302100 23007KT P6SM SKC
     FM310200 VRB05KT 4SM BR SCT004=



000
FTUS46 KLOX 301100 AAD
TAFSMX
TAF AMD
KSMX 301103Z 3011/3106 VRB05KT 6SM BR SCT007
     FM301300 VRB05KT 4SM BR OVC003
      TEMPO 3013/3015 1/2SM FG VV002
     FM301500 VRB03KT 2SM BR BKN005
     FM301700 30006KT P6SM SKC
     FM302100 30014KT P6SM SKC
     FM310300 VRB05KT P6SM SKC=



000
FTUS46 KLOX 301000 AAD
TAFSBA
TAF AMD
KSBA 301059Z 3011/3106 VRB03KT 2SM BR BKN002
      TEMPO 3011/3015 1/4SM FG VV002
     FM301500 16006KT 2SM BR BKN003
     FM301700 16006KT P6SM SKC
     FM302100 23007KT P6SM SKC
     FM310200 VRB05KT 4SM BR SCT004=



000
FTUS46 KLOX 301000 AAD
TAFSBA
TAF AMD
KSBA 301059Z 3011/3106 VRB03KT 2SM BR BKN002
      TEMPO 3011/3015 1/4SM FG VV002
     FM301500 16006KT 2SM BR BKN003
     FM301700 16006KT P6SM SKC
     FM302100 23007KT P6SM SKC
     FM310200 VRB05KT 4SM BR SCT004=



000
FTUS46 KLOX 301000 AAC
TAFLGB
TAF AMD
KLGB 301018Z 3010/3106 VRB05KT 6SM BR BKN006
     FM301100 VRB03KT 2SM BR BKN004
     FM301300 VRB03KT 1/2SM FG VV002
     FM301500 VRB03KT 2SM BR BKN003
     FM301600 VRB03KT P6SM SKC
     FM302000 19007KT P6SM SKC
     FM310100 VRB05KT P6SM SKC=



000
FTUS46 KLOX 301000 AAC
TAFLGB
TAF AMD
KLGB 301018Z 3010/3106 VRB05KT 6SM BR BKN006
     FM301100 VRB03KT 2SM BR BKN004
     FM301300 VRB03KT 1/2SM FG VV002
     FM301500 VRB03KT 2SM BR BKN003
     FM301600 VRB03KT P6SM SKC
     FM302000 19007KT P6SM SKC
     FM310100 VRB05KT P6SM SKC=



000
FTUS46 KLOX 301000 AAC
TAFSBA
TAF AMD
KSBA 301017Z 3010/3106 VRB03KT 1/4SM FG VV002
     FM301500 16006KT 2SM BR BKN003
     FM301700 16006KT P6SM SKC
     FM302100 23007KT P6SM SKC
     FM310200 VRB05KT 4SM BR SCT004=



000
FTUS46 KLOX 301000 AAC
TAFSBA
TAF AMD
KSBA 301017Z 3010/3106 VRB03KT 1/4SM FG VV002
     FM301500 16006KT 2SM BR BKN003
     FM301700 16006KT P6SM SKC
     FM302100 23007KT P6SM SKC
     FM310200 VRB05KT 4SM BR SCT004=



000
FTUS46 KLOX 300900 AAC
TAFSMX
TAF AMD
KSMX 300952Z 3010/3106 VRB05KT 6SM BR SCT007
     FM301100 VRB05KT 4SM BR OVC003
     FM301300 VRB03KT 1/2SM FG OVC002
     FM301500 VRB03KT 2SM BR BKN005
     FM301700 30006KT P6SM SKC
     FM302100 30014KT P6SM SKC
     FM310300 VRB05KT P6SM SKC=



000
FTUS46 KLOX 300900 AAB
TAFLGB
TAF AMD
KLGB 300930Z 3010/3106 VRB05KT 6SM BR BKN006
     FM301000 VRB03KT 2SM BR BKN004
     FM301300 VRB03KT 1/2SM FG VV002
     FM301500 VRB03KT 2SM BR BKN003
     FM301600 VRB03KT P6SM SKC
     FM302000 19007KT P6SM SKC
     FM310100 VRB05KT P6SM SKC=



000
FTUS46 KLOX 300900 AAB
TAFSMX
TAF AMD
KSMX 300905Z 3009/3106 VRB05KT 1/4SM FG VV007
     FM301100 VRB05KT 4SM BR OVC003
     FM301300 VRB03KT 1/2SM FG OVC002
     FM301500 VRB03KT 2SM BR BKN005
     FM301700 30006KT P6SM SKC
     FM302100 30014KT P6SM SKC
     FM310300 VRB05KT P6SM SKC=



000
FTUS46 KLOX 300800 AAA
TAFSMX
TAF AMD
KSMX 300859Z 3009/3106 VRB05KT 1SM BR VV007
     FM301100 VRB05KT 4SM BR OVC003
     FM301300 VRB03KT 1/2SM FG OVC002
     FM301500 VRB03KT 2SM BR BKN005
     FM301700 30006KT P6SM SKC
     FM302100 30014KT P6SM SKC
     FM310300 VRB05KT P6SM SKC=



000
FTUS46 KLOX 300800 AAA
TAFLAX
TAF AMD
KLAX 300858Z 3009/3112 28007KT 6SM BR SCT008
     FM301300 VRB03KT 1/2SM FG OVC007
     FM301500 VRB05KT 2SM BR BKN003
     FM301630 25006KT 4SM BR SCT004
     FM301900 26012KT P6SM SKC
     FM310400 26006KT P6SM SKC
     FM310800 VRB05KT 5SM BR BKN008=



000
FTUS46 KLOX 300800 AAA
TAFLAX
TAF AMD
KLAX 300858Z 3009/3112 28007KT 6SM BR SCT008
     FM301300 VRB03KT 1/2SM FG OVC007
     FM301500 VRB05KT 2SM BR BKN003
     FM301630 25006KT 4SM BR SCT004
     FM301900 26012KT P6SM SKC
     FM310400 26006KT P6SM SKC
     FM310800 VRB05KT 5SM BR BKN008=



000
FTUS46 KLOX 300800 AAA
TAFLGB
TAF AMD
KLGB 300802Z 3008/3106 VRB05KT P6SM FEW008 SCT250
     FM300930 VRB03KT 2SM BR BKN002
     FM301100 VRB03KT 1/2SM FG VV002
     FM301500 VRB03KT 2SM BR BKN003
     FM301600 VRB03KT P6SM SKC
     FM302000 19007KT P6SM SKC
     FM310100 VRB05KT P6SM SKC=



000
FTUS46 KLOX 300800 AAA
TAFLGB
TAF AMD
KLGB 300802Z 3008/3106 VRB05KT P6SM FEW008 SCT250
     FM300930 VRB03KT 2SM BR BKN002
     FM301100 VRB03KT 1/2SM FG VV002
     FM301500 VRB03KT 2SM BR BKN003
     FM301600 VRB03KT P6SM SKC
     FM302000 19007KT P6SM SKC
     FM310100 VRB05KT P6SM SKC=



000
FTUS46 KLOX 300700 AAB
TAFSBA
TAF AMD
KSBA 300722Z 3007/3106 VRB05KT 4SM BR OVC005
     FM301000 VRB03KT 1/2SM FG VV002
     FM301500 16006KT 2SM BR BKN003
     FM301700 16006KT P6SM SKC
     FM302100 23007KT P6SM SKC
     FM310200 VRB05KT 4SM BR SCT004=



000
FTUS46 KLOX 300700 AAB
TAFSBA
TAF AMD
KSBA 300722Z 3007/3106 VRB05KT 4SM BR OVC005
     FM301000 VRB03KT 1/2SM FG VV002
     FM301500 16006KT 2SM BR BKN003
     FM301700 16006KT P6SM SKC
     FM302100 23007KT P6SM SKC
     FM310200 VRB05KT 4SM BR SCT004=



000
FTUS46 KLOX 300700 AAA
TAFSBA
TAF AMD
KSBA 300713Z 3007/3106 VRB05KT 4SM BR OVC003
     FM301000 VRB03KT 1/2SM FG VV002
     FM301500 16006KT 2SM BR BKN003
     FM301700 16006KT P6SM SKC
     FM302100 23007KT P6SM SKC
     FM310200 VRB05KT 4SM BR SCT004=



000
FTUS46 KLOX 300700 AAA
TAFSBA
TAF AMD
KSBA 300713Z 3007/3106 VRB05KT 4SM BR OVC003
     FM301000 VRB03KT 1/2SM FG VV002
     FM301500 16006KT 2SM BR BKN003
     FM301700 16006KT P6SM SKC
     FM302100 23007KT P6SM SKC
     FM310200 VRB05KT 4SM BR SCT004=



000
FTUS46 KLOX 300500
TAFPRB
TAF
KPRB 300533Z 3006/3106 30007KT P6SM SKC
     FM301100 VRB05KT P6SM SKC=



000
FTUS46 KLOX 300500
TAFSBA
TAF
KSBA 300533Z 3006/3106 VRB05KT 1SM BR OVC003
     FM301000 VRB03KT 1/2SM FG VV002
     FM301500 16006KT 2SM BR BKN003
     FM301700 16006KT P6SM SKC
     FM302100 23007KT P6SM SKC
     FM310200 VRB05KT 4SM BR SCT004=



000
FTUS46 KLOX 300500
TAFSBP
TAF
KSBP 300533Z 3006/3106 VRB03KT P6SM SKC
     FM301900 31012KT P6SM SKC
     FM310300 VRB05KT P6SM SKC=



000
FTUS46 KLOX 300500
TAFSMX
TAF
KSMX 300533Z 3006/3106 VRB05KT 6SM BR SCT005
     FM301100 VRB05KT 4SM BR OVC003
     FM301300 VRB03KT 1/2SM FG OVC002
     FM301500 VRB03KT 2SM BR BKN005
     FM301700 30006KT P6SM SKC
     FM302100 30014KT P6SM SKC
     FM310300 VRB05KT P6SM SKC=



000
FTUS46 KLOX 300500
TAFSBA
TAF
KSBA 300533Z 3006/3106 VRB05KT 1SM BR OVC003
     FM301000 VRB03KT 1/2SM FG VV002
     FM301500 16006KT 2SM BR BKN003
     FM301700 16006KT P6SM SKC
     FM302100 23007KT P6SM SKC
     FM310200 VRB05KT 4SM BR SCT004=



000
FTUS46 KLOX 300500
TAFPRB
TAF
KPRB 300533Z 3006/3106 30007KT P6SM SKC
     FM301100 VRB05KT P6SM SKC=



000
FTUS46 KLOX 300500
TAFSBP
TAF
KSBP 300533Z 3006/3106 VRB03KT P6SM SKC
     FM301900 31012KT P6SM SKC
     FM310300 VRB05KT P6SM SKC=



000
FTUS46 KLOX 300500
TAFSMX
TAF
KSMX 300533Z 3006/3106 VRB05KT 6SM BR SCT005
     FM301100 VRB05KT 4SM BR OVC003
     FM301300 VRB03KT 1/2SM FG OVC002
     FM301500 VRB03KT 2SM BR BKN005
     FM301700 30006KT P6SM SKC
     FM302100 30014KT P6SM SKC
     FM310300 VRB05KT P6SM SKC=



000
FTUS46 KLOX 300500
TAFWJF
TAF
KWJF 300525Z 3006/3106 25011KT P6SM SKC
     FM300800 VRB05KT P6SM SKC
     FM302100 27010KT P6SM SKC=



000
FTUS46 KLOX 300500
TAFLAX
TAF
KLAX 300525Z 3006/3112 28007KT 6SM BR BKN008
     FM300900 VRB03KT 1/2SM FG VV001
     FM301500 VRB05KT 2SM BR BKN003
     FM301630 25006KT 4SM BR SCT004
     FM301900 26012KT P6SM SKC
     FM310400 26006KT P6SM SKC
     FM310800 VRB05KT 5SM BR BKN008=



000
FTUS46 KLOX 300500
TAFLAX
TAF
KLAX 300525Z 3006/3112 28007KT 6SM BR BKN008
     FM300900 VRB03KT 1/2SM FG VV001
     FM301500 VRB05KT 2SM BR BKN003
     FM301630 25006KT 4SM BR SCT004
     FM301900 26012KT P6SM SKC
     FM310400 26006KT P6SM SKC
     FM310800 VRB05KT 5SM BR BKN008=



000
FTUS46 KLOX 300500
TAFLGB
TAF
KLGB 300525Z 3006/3106 VRB05KT P6SM FEW008 SCT250
     FM300800 VRB03KT 2SM BR BKN002
     FM301100 VRB03KT 1/2SM FG VV002
     FM301500 VRB03KT 2SM BR BKN003
     FM301600 VRB03KT P6SM SKC
     FM302000 19007KT P6SM SKC
     FM310100 VRB05KT P6SM SKC=



000
FTUS46 KLOX 300500
TAFBUR
TAF
KBUR 300525Z 3006/3106 VRB05KT P6SM SCT250
     FM302000 17008KT P6SM SKC
     FM310400 VRB05KT P6SM SKC=



000
FTUS46 KLOX 300500
TAFPMD
TAF
KPMD 300525Z 3006/3106 28007KT P6SM SKC
     FM300800 VRB05KT P6SM SKC
     FM302100 27008KT P6SM SKC=



000
FTUS46 KLOX 300500
TAFVNY
TAF
KVNY 300525Z 3006/3106 VRB05KT P6SM SCT250
     FM302100 15008KT P6SM SKC
     FM310300 VRB05KT P6SM SKC=



000
FTUS46 KLOX 300500
TAFWJF
TAF
KWJF 300525Z 3006/3106 25011KT P6SM SKC
     FM300800 VRB05KT P6SM SKC
     FM302100 27010KT P6SM SKC=



000
FTUS46 KLOX 300500
TAFBUR
TAF
KBUR 300525Z 3006/3106 VRB05KT P6SM SCT250
     FM302000 17008KT P6SM SKC
     FM310400 VRB05KT P6SM SKC=



000
FTUS46 KLOX 300500
TAFLGB
TAF
KLGB 300525Z 3006/3106 VRB05KT P6SM FEW008 SCT250
     FM300800 VRB03KT 2SM BR BKN002
     FM301100 VRB03KT 1/2SM FG VV002
     FM301500 VRB03KT 2SM BR BKN003
     FM301600 VRB03KT P6SM SKC
     FM302000 19007KT P6SM SKC
     FM310100 VRB05KT P6SM SKC=



000
FTUS46 KLOX 300500
TAFPMD
TAF
KPMD 300525Z 3006/3106 28007KT P6SM SKC
     FM300800 VRB05KT P6SM SKC
     FM302100 27008KT P6SM SKC=



000
FTUS46 KLOX 300500
TAFVNY
TAF
KVNY 300525Z 3006/3106 VRB05KT P6SM SCT250
     FM302100 15008KT P6SM SKC
     FM310300 VRB05KT P6SM SKC=



000
FTUS46 KLOX 300500 AAB
TAFLAX
TAF AMD
KLAX 300518Z 3005/3106 28007KT 6SM BR BKN008
     FM300900 VRB03KT 1/2SM FG VV001
     FM301500 VRB05KT 2SM BR BKN003
     FM301630 25006KT 4SM BR SCT004
     FM301900 26012KT P6SM SKC
     FM310400 26006KT P6SM SKC=



000
FTUS46 KLOX 300500 AAB
TAFLAX
TAF AMD
KLAX 300518Z 3005/3106 28007KT 6SM BR BKN008
     FM300900 VRB03KT 1/2SM FG VV001
     FM301500 VRB05KT 2SM BR BKN003
     FM301630 25006KT 4SM BR SCT004
     FM301900 26012KT P6SM SKC
     FM310400 26006KT P6SM SKC=



000
FTUS46 KLOX 300200 AAA
TAFLAX
TAF AMD
KLAX 300257Z 3003/3106 26009KT P6SM SKC
     FM300600 25006KT 3SM BR BKN005
     FM300900 VRB03KT 1/2SM FG VV001
     FM301500 VRB05KT 2SM BR BKN003
     FM301630 25006KT 4SM BR SCT004
     FM301900 26012KT P6SM SKC
     FM310400 26006KT P6SM SKC=



000
FTUS46 KLOX 300200 AAA
TAFSBA
TAF AMD
KSBA 300256Z 3003/3024 22007KT 1SM BR BKN003
     FM301000 VRB03KT 1/2SM FG VV002
     FM301500 16006KT 2SM BR BKN003
     FM301700 16006KT P6SM SKC
     FM302100 23007KT P6SM SKC=



000
FTUS46 KLOX 300200 AAA
TAFSBA
TAF AMD
KSBA 300256Z 3003/3024 22007KT 1SM BR BKN003
     FM301000 VRB03KT 1/2SM FG VV002
     FM301500 16006KT 2SM BR BKN003
     FM301700 16006KT P6SM SKC
     FM302100 23007KT P6SM SKC=



000
FTUS46 KLOX 292300
TAFSMX
TAF
KSMX 292320Z 3000/3024 32012KT P6SM SKC
     FM300300 33006KT P6SM SKC
     FM300600 VRB03KT 4SM BR OVC003
     FM301100 VRB03KT 1/2SM FG OVC002
     FM301500 VRB03KT 2SM BR BKN005
     FM301700 30006KT P6SM SKC
     FM302100 30014KT P6SM SKC=



000
FTUS46 KLOX 292300
TAFBUR
TAF
KBUR 292320Z 3000/3024 18008KT P6SM SKC
     FM300300 VRB03KT P6SM SKC
     FM302000 17008KT P6SM SKC=



000
FTUS46 KLOX 292300
TAFSBP
TAF
KSBP 292320Z 3000/3024 31012KT P6SM SKC
     FM300400 VRB03KT P6SM SKC
     FM301900 31012KT P6SM SKC=



000
FTUS46 KLOX 292300
TAFWJF
TAF
KWJF 292320Z 3000/3024 25010KT P6SM SKC
     FM300800 VRB03KT P6SM SKC
     FM302100 27008KT P6SM SKC=



000
FTUS46 KLOX 292300
TAFVNY
TAF
KVNY 292320Z 3000/3024 16008KT P6SM SKC
     FM300300 VRB03KT P6SM SKC
     FM302100 15008KT P6SM SKC=



000
FTUS46 KLOX 292300
TAFPRB
TAF
KPRB 292320Z 3000/3024 VRB06KT P6SM SKC=



000
FTUS46 KLOX 292300
TAFLAX
TAF
KLAX 292320Z 3000/3106 26009KT P6SM SKC
     FM300400 25006KT 3SM BR BKN005
     FM300900 VRB03KT 1/2SM FG VV001
     FM301500 VRB05KT 2SM BR BKN003
     FM301630 25006KT 4SM BR SCT004
     FM301900 26012KT P6SM SKC
     FM310400 26006KT P6SM SKC=



000
FTUS46 KLOX 292300
TAFSBA
TAF
KSBA 292320Z 3000/3024 22007KT P6SM SKC
     FM300100 VRB03KT 5SM BR BKN005
     FM300400 VRB03KT P6SM SKC
     FM301000 VRB03KT 1/2SM FG VV002
     FM301500 16006KT 2SM BR BKN003
     FM301700 16006KT P6SM SKC
     FM302100 23007KT P6SM SKC=



000
FTUS46 KLOX 292300
TAFSMX
TAF
KSMX 292320Z 3000/3024 32012KT P6SM SKC
     FM300300 33006KT P6SM SKC
     FM300600 VRB03KT 4SM BR OVC003
     FM301100 VRB03KT 1/2SM FG OVC002
     FM301500 VRB03KT 2SM BR BKN005
     FM301700 30006KT P6SM SKC
     FM302100 30014KT P6SM SKC=



000
FTUS46 KLOX 292300
TAFPMD
TAF
KPMD 292320Z 3000/3024 26010KT P6SM SKC
     FM300800 VRB03KT P6SM SKC
     FM302100 27008KT P6SM SKC=



000
FTUS46 KLOX 292300
TAFLGB
TAF
KLGB 292320Z 3000/3024 29008KT P6SM SKC
     FM300400 VRB03KT P6SM SCT250
     FM300800 VRB03KT 2SM BR BKN002
     FM301100 VRB03KT 1/2SM FG VV002
     FM301500 VRB03KT 2SM BR BKN003
     FM301600 VRB03KT P6SM SKC
     FM302000 19007KT P6SM SKC=



000
FTUS46 KLOX 292300
TAFVNY
TAF
KVNY 292320Z 3000/3024 16008KT P6SM SKC
     FM300300 VRB03KT P6SM SKC
     FM302100 15008KT P6SM SKC=



000
FTUS46 KLOX 292300
TAFBUR
TAF
KBUR 292320Z 3000/3024 18008KT P6SM SKC
     FM300300 VRB03KT P6SM SKC
     FM302000 17008KT P6SM SKC=



000
FTUS46 KLOX 292300
TAFSBA
TAF
KSBA 292320Z 3000/3024 22007KT P6SM SKC
     FM300100 VRB03KT 5SM BR BKN005
     FM300400 VRB03KT P6SM SKC
     FM301000 VRB03KT 1/2SM FG VV002
     FM301500 16006KT 2SM BR BKN003
     FM301700 16006KT P6SM SKC
     FM302100 23007KT P6SM SKC=



000
FTUS46 KLOX 292300
TAFLGB
TAF
KLGB 292320Z 3000/3024 29008KT P6SM SKC
     FM300400 VRB03KT P6SM SCT250
     FM300800 VRB03KT 2SM BR BKN002
     FM301100 VRB03KT 1/2SM FG VV002
     FM301500 VRB03KT 2SM BR BKN003
     FM301600 VRB03KT P6SM SKC
     FM302000 19007KT P6SM SKC=



000
FTUS46 KLOX 292300
TAFPRB
TAF
KPRB 292320Z 3000/3024 VRB06KT P6SM SKC=



000
FTUS46 KLOX 292300
TAFLAX
TAF
KLAX 292320Z 3000/3106 26009KT P6SM SKC
     FM300400 25006KT 3SM BR BKN005
     FM300900 VRB03KT 1/2SM FG VV001
     FM301500 VRB05KT 2SM BR BKN003
     FM301630 25006KT 4SM BR SCT004
     FM301900 26012KT P6SM SKC
     FM310400 26006KT P6SM SKC=



000
FTUS46 KLOX 292300
TAFPMD
TAF
KPMD 292320Z 3000/3024 26010KT P6SM SKC
     FM300800 VRB03KT P6SM SKC
     FM302100 27008KT P6SM SKC=



000
FTUS46 KLOX 292300
TAFWJF
TAF
KWJF 292320Z 3000/3024 25010KT P6SM SKC
     FM300800 VRB03KT P6SM SKC
     FM302100 27008KT P6SM SKC=



000
FTUS46 KLOX 292300
TAFSBP
TAF
KSBP 292320Z 3000/3024 31012KT P6SM SKC
     FM300400 VRB03KT P6SM SKC
     FM301900 31012KT P6SM SKC=



000
FTUS46 KLOX 292000 AAB
TAFLAX
TAF AMD
KLAX 292032Z 2921/3024 26009KT P6SM FEW008 SCT250
     FM300400 25005KT 3SM BR BKN004
     FM300700 VRB03KT 1/2SM FG VV001
     FM301500 VRB05KT 2SM BR BKN002
     FM301700 VRB03KT 4SM BR SCT004
     FM302000 25010KT P6SM SKC=



000
FTUS46 KLOX 291900 AAA
TAFLAX
TAF AMD
KLAX 291907Z 2919/3024 26009KT 6SM HZ FEW008 SCT250
     FM300400 25005KT 3SM BR BKN004
     FM300700 VRB03KT 1/2SM FG VV001
     FM301500 VRB05KT 2SM BR BKN002
     FM301700 VRB03KT 4SM BR SCT004
     FM302000 25010KT P6SM SKC=



000
FTUS46 KLOX 291900 AAA
TAFLAX
TAF AMD
KLAX 291907Z 2919/3024 26009KT 6SM HZ FEW008 SCT250
     FM300400 25005KT 3SM BR BKN004
     FM300700 VRB03KT 1/2SM FG VV001
     FM301500 VRB05KT 2SM BR BKN002
     FM301700 VRB03KT 4SM BR SCT004
     FM302000 25010KT P6SM SKC=



000
FTUS46 KLOX 291700
TAFPMD
TAF
KPMD 291730Z 2918/3018 VRB03KT P6SM SCT250
     FM292000 28009KT P6SM SCT250
     FM292200 27010G15KT P6SM SKC
     FM300500 25005KT P6SM SKC=



000
FTUS46 KLOX 291700
TAFVNY
TAF
KVNY 291730Z 2918/3018 29003KT P6SM SCT250
     FM292100 16007KT P6SM SCT250
     FM300300 VRB03KT P6SM SCT250=



000
FTUS46 KLOX 291700
TAFWJF
TAF
KWJF 291730Z 2918/3018 12004KT P6SM SCT250
     FM292000 25009KT P6SM SCT250
     FM292200 24010G15KT P6SM SCT250
     FM300400 28005KT P6SM SKC=



000
FTUS46 KLOX 291700
TAFSBA
TAF
KSBA 291730Z 2918/3018 14006KT P6SM BKN250
     FM292200 25007KT P6SM SCT250
     FM300300 VRB03KT P6SM SKC
     FM301000 10005KT 1/2SM FG VV002
     FM301700 18006KT 4SM HZ SCT003=



000
FTUS46 KLOX 291700
TAFLAX
TAF
KLAX 291730Z 2918/3024 00000KT 4SM HZ FEW008 BKN250
     FM292000 25010KT 6SM HZ SCT250
     FM300400 25005KT 3SM BR BKN004
     FM300700 VRB03KT 1/2SM FG VV001
     FM301500 VRB05KT 2SM BR BKN002
     FM301700 VRB03KT 4SM BR SCT004
     FM302000 25010KT P6SM SKC=



000
FTUS46 KLOX 291700
TAFLGB
TAF
KLGB 291730Z 2918/3018 18007KT P6SM BKN250
     FM292300 29008KT P6SM SCT250
     FM300200 VRB03KT P6SM SCT250
     FM300800 VRB03KT 2SM BR BKN002
     FM301100 VRB03KT 1/2SM FG VV002
     FM301600 VRB03KT 3SM BR SCT004=



000
FTUS46 KLOX 291700
TAFBUR
TAF
KBUR 291730Z 2918/3018 00000KT P6SM SCT250
     FM292100 18006KT P6SM SCT250
     FM300200 VRB03KT P6SM SCT250=



000
FTUS46 KLOX 291700
TAFSMX
TAF
KSMX 291730Z 2918/3018 29003KT 6SM HZ SKC
     FM292100 31014KT P6SM SKC
     FM300300 33004KT P6SM SKC
     FM300500 VRB03KT 1/2SM FG VV001
     FM301300 VRB03KT 1SM BR OVC002=



000
FTUS46 KLOX 291700
TAFSBA
TAF
KSBA 291730Z 2918/3018 14006KT P6SM BKN250
     FM292200 25007KT P6SM SCT250
     FM300300 VRB03KT P6SM SKC
     FM301000 10005KT 1/2SM FG VV002
     FM301700 18006KT 4SM HZ SCT003=



000
FTUS46 KLOX 291700
TAFPRB
TAF
KPRB 291730Z 2918/3018 VRB04KT P6SM SKC
     FM292100 01007KT P6SM SKC
     FM300000 32006KT P6SM SKC
     FM300500 VRB03KT P6SM SKC=



000
FTUS46 KLOX 291700
TAFSBP
TAF
KSBP 291730Z 2918/3018 30005KT P6SM SKC
     FM291900 31008KT P6SM SKC
     FM292100 31015KT P6SM SKC
     FM300400 VRB03KT P6SM SKC=



000
FTUS46 KLOX 291700
TAFSMX
TAF
KSMX 291730Z 2918/3018 29003KT 6SM HZ SKC
     FM292100 31014KT P6SM SKC
     FM300300 33004KT P6SM SKC
     FM300500 VRB03KT 1/2SM FG VV001
     FM301300 VRB03KT 1SM BR OVC002=



000
FTUS46 KLOX 291700
TAFVNY
TAF
KVNY 291730Z 2918/3018 29003KT P6SM SCT250
     FM292100 16007KT P6SM SCT250
     FM300300 VRB03KT P6SM SCT250=



000
FTUS46 KLOX 291700
TAFSBP
TAF
KSBP 291730Z 2918/3018 30005KT P6SM SKC
     FM291900 31008KT P6SM SKC
     FM292100 31015KT P6SM SKC
     FM300400 VRB03KT P6SM SKC=



000
FTUS46 KLOX 291700
TAFPRB
TAF
KPRB 291730Z 2918/3018 VRB04KT P6SM SKC
     FM292100 01007KT P6SM SKC
     FM300000 32006KT P6SM SKC
     FM300500 VRB03KT P6SM SKC=



000
FTUS46 KLOX 291700
TAFWJF
TAF
KWJF 291730Z 2918/3018 12004KT P6SM SCT250
     FM292000 25009KT P6SM SCT250
     FM292200 24010G15KT P6SM SCT250
     FM300400 28005KT P6SM SKC=



000
FTUS46 KLOX 291700
TAFLAX
TAF
KLAX 291730Z 2918/3024 00000KT 4SM HZ FEW008 BKN250
     FM292000 25010KT 6SM HZ SCT250
     FM300400 25005KT 3SM BR BKN004
     FM300700 VRB03KT 1/2SM FG VV001
     FM301500 VRB05KT 2SM BR BKN002
     FM301700 VRB03KT 4SM BR SCT004
     FM302000 25010KT P6SM SKC=



000
FTUS46 KLOX 291700
TAFBUR
TAF
KBUR 291730Z 2918/3018 00000KT P6SM SCT250
     FM292100 18006KT P6SM SCT250
     FM300200 VRB03KT P6SM SCT250=



000
FTUS46 KLOX 291700
TAFLGB
TAF
KLGB 291730Z 2918/3018 18007KT P6SM BKN250
     FM292300 29008KT P6SM SCT250
     FM300200 VRB03KT P6SM SCT250
     FM300800 VRB03KT 2SM BR BKN002
     FM301100 VRB03KT 1/2SM FG VV002
     FM301600 VRB03KT 3SM BR SCT004=



000
FTUS46 KLOX 291700
TAFPMD
TAF
KPMD 291730Z 2918/3018 VRB03KT P6SM SCT250
     FM292000 28009KT P6SM SCT250
     FM292200 27010G15KT P6SM SKC
     FM300500 25005KT P6SM SKC=



000
FTUS46 KLOX 291600 AAE
TAFSBA
TAF AMD
KSBA 291659Z 2917/3012 14006KT P6SM BKN250
     FM291800 19005KT P6SM BKN250
     FM292200 25007KT P6SM SKC
     FM300300 VRB03KT P6SM SKC=



000
FTUS46 KLOX 291600 AAE
TAFSBA
TAF AMD
KSBA 291659Z 2917/3012 14006KT P6SM BKN250
     FM291800 19005KT P6SM BKN250
     FM292200 25007KT P6SM SKC
     FM300300 VRB03KT P6SM SKC=



000
FTUS46 KLOX 291600 AAF
TAFLAX
TAF AMD
KLAX 291657Z 2917/3018 00000KT 4SM HZ FEW008 BKN250
     FM291800 18006KT 5SM HZ SCT005 BKN250
     FM292000 25010KT P6SM SCT250
     FM300400 VRB05KT P6SM SCT250
     FM300700 VRB05KT 6SM BR SCT006
     FM301000 VRB05KT 2SM BR BKN002
     FM301700 VRB03KT 4SM BR BKN250=



000
FTUS46 KLOX 291600 AAF
TAFLAX
TAF AMD
KLAX 291657Z 2917/3018 00000KT 4SM HZ FEW008 BKN250
     FM291800 18006KT 5SM HZ SCT005 BKN250
     FM292000 25010KT P6SM SCT250
     FM300400 VRB05KT P6SM SCT250
     FM300700 VRB05KT 6SM BR SCT006
     FM301000 VRB05KT 2SM BR BKN002
     FM301700 VRB03KT 4SM BR BKN250=



000
FTUS46 KLOX 291600 AAD
TAFSBA
TAF AMD
KSBA 291613Z 2916/3012 VRB03KT 1/2SM FG VV002
     FM291700 19005KT P6SM SCT250
     FM292200 25007KT P6SM SKC
     FM300300 VRB03KT P6SM SKC=



000
FTUS46 KLOX 291600 AAB
TAFSMX
TAF AMD
KSMX 291602Z 2916/3012 VRB03KT 5SM HZ SCT250
     FM291700 34006KT 6SM HZ SCT250
     FM292100 31014KT P6SM SKC
     FM300300 VRB05KT P6SM SKC=



000
FTUS46 KLOX 291600 AAB
TAFSMX
TAF AMD
KSMX 291602Z 2916/3012 VRB03KT 5SM HZ SCT250
     FM291700 34006KT 6SM HZ SCT250
     FM292100 31014KT P6SM SKC
     FM300300 VRB05KT P6SM SKC=



000
FTUS46 KLOX 291600 AAE
TAFLAX
TAF AMD
KLAX 291601Z 2916/3018 VRB03KT 1 1/2SM BR OVC003
     FM291630 12006KT 3SM BR OVC003
     FM291800 18006KT 6SM HZ SCT005
     FM292000 25010KT P6SM SCT250
     FM300400 VRB05KT P6SM SCT250
     FM300700 VRB05KT 6SM BR SCT006
     FM301000 VRB05KT 2SM BR BKN002
     FM301700 VRB03KT 4SM BR BKN250=



000
FTUS46 KLOX 291500 AAC
TAFLGB
TAF AMD
KLGB 291552Z 2916/3012 00000KT 6SM HZ SCT008 BKN250
     FM291900 20007KT P6SM BKN250
     FM292300 29008KT P6SM SCT250
     FM300200 VRB05KT P6SM SCT250
     FM301000 VRB05KT 2SM BR BKN002=



000
FTUS46 KLOX 291500 AAC
TAFLGB
TAF AMD
KLGB 291552Z 2916/3012 00000KT 6SM HZ SCT008 BKN250
     FM291900 20007KT P6SM BKN250
     FM292300 29008KT P6SM SCT250
     FM300200 VRB05KT P6SM SCT250
     FM301000 VRB05KT 2SM BR BKN002=



000
FTUS46 KLOX 291500 AAD
TAFLAX
TAF AMD
KLAX 291527Z 2915/3018 VRB03KT 1/2SM FG VV002
     FM291630 12006KT 3SM BR OVC003
     FM291800 18006KT 6SM HZ SCT005
     FM292000 25010KT P6SM SCT250
     FM300400 VRB05KT P6SM SCT250
     FM300700 VRB05KT 6SM BR SCT006
     FM301000 VRB05KT 2SM BR BKN002
     FM301700 VRB03KT 4SM BR BKN250=



000
FTUS46 KLOX 291500 AAC
TAFLAX
TAF AMD
KLAX 291502Z 2915/3018 VRB03KT 1/2SM FG OVC002
     FM291600 12006KT 3SM BR OVC003
     FM291800 18006KT 6SM HZ SCT005
     FM292000 25010KT P6SM SCT250
     FM300400 VRB05KT P6SM SCT250
     FM300700 VRB05KT 6SM BR SCT006
     FM301000 VRB05KT 2SM BR BKN002
     FM301700 VRB03KT 4SM BR BKN250=



000
FTUS46 KLOX 291500 AAC
TAFLAX
TAF AMD
KLAX 291502Z 2915/3018 VRB03KT 1/2SM FG OVC002
     FM291600 12006KT 3SM BR OVC003
     FM291800 18006KT 6SM HZ SCT005
     FM292000 25010KT P6SM SCT250
     FM300400 VRB05KT P6SM SCT250
     FM300700 VRB05KT 6SM BR SCT006
     FM301000 VRB05KT 2SM BR BKN002
     FM301700 VRB03KT 4SM BR BKN250=



000
FTUS46 KLOX 291400 AAB
TAFLAX
TAF AMD
KLAX 291443Z 2915/3018 VRB03KT 1SM BR OVC002
     FM291600 12006KT 3SM BR OVC003
     FM291800 18006KT 6SM HZ SCT005
     FM292000 25010KT P6SM SCT250
     FM300400 VRB05KT P6SM SCT250
     FM300700 VRB05KT 6SM BR SCT006
     FM301000 VRB05KT 2SM BR BKN002
     FM301700 VRB03KT 4SM BR BKN250=



000
FTUS46 KLOX 291400 AAB
TAFLAX
TAF AMD
KLAX 291443Z 2915/3018 VRB03KT 1SM BR OVC002
     FM291600 12006KT 3SM BR OVC003
     FM291800 18006KT 6SM HZ SCT005
     FM292000 25010KT P6SM SCT250
     FM300400 VRB05KT P6SM SCT250
     FM300700 VRB05KT 6SM BR SCT006
     FM301000 VRB05KT 2SM BR BKN002
     FM301700 VRB03KT 4SM BR BKN250=



000
FTUS46 KLOX 291400 AAB
TAFLGB
TAF AMD
KLGB 291409Z 2914/3012 VRB03KT P6SM OVC008
      TEMPO 2914/2916 3SM BR BKN004
     FM291900 20007KT P6SM SCT250
     FM292300 29008KT P6SM SCT250
     FM300200 VRB05KT P6SM SCT250
     FM301000 VRB05KT 2SM BR BKN002=



000
FTUS46 KLOX 291400 AAC
TAFSBA
TAF AMD
KSBA 291400Z 2914/3012 06004KT P6SM SCT003
      TEMPO 2914/2917 1/4SM FG VV002
     FM291700 19005KT P6SM SCT250
     FM292200 25007KT P6SM SKC
     FM300300 VRB03KT P6SM SKC=



000
FTUS46 KLOX 291300 AAA
TAFLAX
TAF AMD
KLAX 291317Z 2913/3018 VRB05KT 1/2SM FG OVC003
     FM291500 VRB03KT 2SM BR BKN006
     FM291700 23006KT 4SM HZ BKN250
     FM292000 25010KT P6SM SCT250
     FM300400 VRB05KT P6SM SCT250
     FM300700 VRB05KT 6SM BR SCT006
     FM301000 VRB05KT 2SM BR BKN002
     FM301700 VRB03KT 4SM BR BKN250=



000
FTUS46 KLOX 291300 AAA
TAFLAX
TAF AMD
KLAX 291317Z 2913/3018 VRB05KT 1/2SM FG OVC003
     FM291500 VRB03KT 2SM BR BKN006
     FM291700 23006KT 4SM HZ BKN250
     FM292000 25010KT P6SM SCT250
     FM300400 VRB05KT P6SM SCT250
     FM300700 VRB05KT 6SM BR SCT006
     FM301000 VRB05KT 2SM BR BKN002
     FM301700 VRB03KT 4SM BR BKN250=



000
FTUS46 KLOX 291300 AAA
TAFSMX
TAF AMD
KSMX 291316Z 2913/3012 VRB03KT 6SM BR SCT003
     FM291700 34006KT 6SM BR SCT005
     FM292100 31014KT P6SM SKC
     FM300300 VRB05KT P6SM SKC=



000
FTUS46 KLOX 291300 AAA
TAFSMX
TAF AMD
KSMX 291316Z 2913/3012 VRB03KT 6SM BR SCT003
     FM291700 34006KT 6SM BR SCT005
     FM292100 31014KT P6SM SKC
     FM300300 VRB05KT P6SM SKC=



000
FTUS46 KLOX 291200 AAB
TAFSBA
TAF AMD
KSBA 291251Z 2913/3012 VRB05KT 1/4SM FG VV002
     FM291600 VRB03KT 3SM BR OVC003
     FM291800 16005KT 6SM BR SCT006
     FM292000 22005KT P6SM SKC
     FM292300 25007KT P6SM SKC
     FM300300 VRB05KT P6SM SKC=



000
FTUS46 KLOX 291200 AAB
TAFSBA
TAF AMD
KSBA 291251Z 2913/3012 VRB05KT 1/4SM FG VV002
     FM291600 VRB03KT 3SM BR OVC003
     FM291800 16005KT 6SM BR SCT006
     FM292000 22005KT P6SM SKC
     FM292300 25007KT P6SM SKC
     FM300300 VRB05KT P6SM SKC=



000
FTUS46 KLOX 291200 AAA
TAFSBA
TAF AMD
KSBA 291208Z 2912/3012 VRB05KT 1SM BR OVC004
     FM291300 VRB03KT 3SM BR OVC003
     FM291700 16005KT 6SM BR SCT006
     FM292000 22005KT P6SM SKC
     FM292300 25007KT P6SM SKC
     FM300300 VRB05KT P6SM SKC=



000
FTUS46 KLOX 291200 AAA
TAFLGB
TAF AMD
KLGB 291208Z 2912/3012 VRB05KT 5SM BR BKN004 OVC008
     FM291300 VRB03KT 3SM BR OVC003
     FM291600 VRB03KT 6SM HZ BKN250
     FM291900 20007KT P6SM SCT250
     FM292300 29008KT P6SM SCT250
     FM300200 VRB05KT P6SM SCT250
     FM301000 VRB05KT 2SM BR BKN002=



000
FTUS46 KLOX 291200 AAA
TAFLGB
TAF AMD
KLGB 291208Z 2912/3012 VRB05KT 5SM BR BKN004 OVC008
     FM291300 VRB03KT 3SM BR OVC003
     FM291600 VRB03KT 6SM HZ BKN250
     FM291900 20007KT P6SM SCT250
     FM292300 29008KT P6SM SCT250
     FM300200 VRB05KT P6SM SCT250
     FM301000 VRB05KT 2SM BR BKN002=



000
FTUS46 KLOX 291200 AAA
TAFSBA
TAF AMD
KSBA 291208Z 2912/3012 VRB05KT 1SM BR OVC004
     FM291300 VRB03KT 3SM BR OVC003
     FM291700 16005KT 6SM BR SCT006
     FM292000 22005KT P6SM SKC
     FM292300 25007KT P6SM SKC
     FM300300 VRB05KT P6SM SKC=



000
FTUS46 KLOX 291100
TAFPRB
TAF
KPRB 291128Z 2912/3012 VRB05KT P6SM SCT003 SCT250
     FM292200 08009KT P6SM SKC
     FM300300 VRB05KT P6SM SKC=



000
FTUS46 KLOX 291100
TAFSMX
TAF
KSMX 291128Z 2912/3012 VRB03KT 6SM BR SCT003
     FM291300 VRB03KT 4SM BR BKN002
     FM291700 34006KT 6SM BR SCT005
     FM292100 31014KT P6SM SKC
     FM300300 VRB05KT P6SM SKC=



000
FTUS46 KLOX 291100
TAFSBP
TAF
KSBP 291128Z 2912/3012 VRB05KT P6SM SCT250
     FM291900 31008KT P6SM SKC
     FM292100 31015KT P6SM SKC
     FM300200 VRB05KT P6SM SKC=



000
FTUS46 KLOX 291100
TAFSBA
TAF
KSBA 291128Z 2912/3012 VRB05KT P6SM OVC005
     FM291300 VRB03KT 3SM BR OVC003
     FM291700 16005KT 6SM BR SCT006
     FM292000 22005KT P6SM SKC
     FM292300 25007KT P6SM SKC
     FM300300 VRB05KT P6SM SKC=



000
FTUS46 KLOX 291100
TAFPRB
TAF
KPRB 291128Z 2912/3012 VRB05KT P6SM SCT003 SCT250
     FM292200 08009KT P6SM SKC
     FM300300 VRB05KT P6SM SKC=



000
FTUS46 KLOX 291100
TAFSBP
TAF
KSBP 291128Z 2912/3012 VRB05KT P6SM SCT250
     FM291900 31008KT P6SM SKC
     FM292100 31015KT P6SM SKC
     FM300200 VRB05KT P6SM SKC=



000
FTUS46 KLOX 291100
TAFSMX
TAF
KSMX 291128Z 2912/3012 VRB03KT 6SM BR SCT003
     FM291300 VRB03KT 4SM BR BKN002
     FM291700 34006KT 6SM BR SCT005
     FM292100 31014KT P6SM SKC
     FM300300 VRB05KT P6SM SKC=



000
FTUS46 KLOX 291100
TAFSBA
TAF
KSBA 291128Z 2912/3012 VRB05KT P6SM OVC005
     FM291300 VRB03KT 3SM BR OVC003
     FM291700 16005KT 6SM BR SCT006
     FM292000 22005KT P6SM SKC
     FM292300 25007KT P6SM SKC
     FM300300 VRB05KT P6SM SKC=



000
FTUS46 KLOX 291100
TAFLAX
TAF
KLAX 291123Z 2912/3018 VRB05KT 1/4SM FG VV001
     FM291500 VRB03KT 2SM BR BKN004
     FM291700 23006KT 4SM HZ BKN250
     FM292000 25010KT P6SM SCT250
     FM300400 VRB05KT P6SM SCT250
     FM300700 VRB05KT 6SM BR SCT006
     FM301000 VRB05KT 2SM BR BKN002
     FM301700 VRB03KT 4SM BR BKN250=



000
FTUS46 KLOX 291100
TAFBUR
TAF
KBUR 291123Z 2912/3012 VRB05KT P6SM SCT250
     FM292100 18006KT P6SM SCT250
     FM300200 VRB05KT P6SM SCT250=



000
FTUS46 KLOX 291100
TAFLGB
TAF
KLGB 291123Z 2912/3012 VRB05KT 6SM BR BKN009
     FM291300 VRB03KT 3SM BR OVC005
     FM291600 VRB03KT 6SM HZ BKN250
     FM291900 20007KT P6SM SCT250
     FM292300 29008KT P6SM SCT250
     FM300200 VRB05KT P6SM SCT250
     FM301000 VRB05KT 2SM BR BKN002=



000
FTUS46 KLOX 291100
TAFBUR
TAF
KBUR 291123Z 2912/3012 VRB05KT P6SM SCT250
     FM292100 18006KT P6SM SCT250
     FM300200 VRB05KT P6SM SCT250=



000
FTUS46 KLOX 291100
TAFWJF
TAF
KWJF 291123Z 2912/3012 VRB05KT P6SM SKC
     FM292000 25011KT P6SM SKC
     FM292200 24016G22KT P6SM SKC
     FM300400 28008KT P6SM SKC=



000
FTUS46 KLOX 291100
TAFVNY
TAF
KVNY 291123Z 2912/3012 VRB05KT P6SM SKC
     FM292100 16007KT P6SM SCT250
     FM300300 VRB05KT P6SM SCT250=



000
FTUS46 KLOX 291100
TAFLAX
TAF
KLAX 291123Z 2912/3018 VRB05KT 1/4SM FG VV001
     FM291500 VRB03KT 2SM BR BKN004
     FM291700 23006KT 4SM HZ BKN250
     FM292000 25010KT P6SM SCT250
     FM300400 VRB05KT P6SM SCT250
     FM300700 VRB05KT 6SM BR SCT006
     FM301000 VRB05KT 2SM BR BKN002
     FM301700 VRB03KT 4SM BR BKN250=



000
FTUS46 KLOX 291100
TAFPMD
TAF
KPMD 291123Z 2912/3012 29005KT P6SM SKC
     FM291600 VRB03KT P6SM SKC
     FM292000 28009KT P6SM SKC
     FM292200 27014G20KT P6SM SKC
     FM300500 28005KT P6SM SKC=



000
FTUS46 KLOX 291100
TAFLGB
TAF
KLGB 291123Z 2912/3012 VRB05KT 6SM BR BKN009
     FM291300 VRB03KT 3SM BR OVC005
     FM291600 VRB03KT 6SM HZ BKN250
     FM291900 20007KT P6SM SCT250
     FM292300 29008KT P6SM SCT250
     FM300200 VRB05KT P6SM SCT250
     FM301000 VRB05KT 2SM BR BKN002=



000
FTUS46 KLOX 291100
TAFVNY
TAF
KVNY 291123Z 2912/3012 VRB05KT P6SM SKC
     FM292100 16007KT P6SM SCT250
     FM300300 VRB05KT P6SM SCT250=



000
FTUS46 KLOX 291100
TAFPMD
TAF
KPMD 291123Z 2912/3012 29005KT P6SM SKC
     FM291600 VRB03KT P6SM SKC
     FM292000 28009KT P6SM SKC
     FM292200 27014G20KT P6SM SKC
     FM300500 28005KT P6SM SKC=



000
FTUS46 KLOX 291100
TAFWJF
TAF
KWJF 291123Z 2912/3012 VRB05KT P6SM SKC
     FM292000 25011KT P6SM SKC
     FM292200 24016G22KT P6SM SKC
     FM300400 28008KT P6SM SKC=



000
FTUS46 KLOX 291100 AAC
TAFLGB
TAF AMD
KLGB 291117Z 2911/3006 VRB05KT 6SM BR BKN009
     FM291300 VRB03KT 3SM BR OVC005
     FM291600 VRB03KT 6SM HZ BKN250
     FM291900 20007KT P6SM SCT250
     FM292300 29008KT P6SM SCT250
     FM300200 VRB05KT P6SM SCT250=



000
FTUS46 KLOX 291100 AAC
TAFLGB
TAF AMD
KLGB 291117Z 2911/3006 VRB05KT 6SM BR BKN009
     FM291300 VRB03KT 3SM BR OVC005
     FM291600 VRB03KT 6SM HZ BKN250
     FM291900 20007KT P6SM SCT250
     FM292300 29008KT P6SM SCT250
     FM300200 VRB05KT P6SM SCT250=



000
FTUS46 KLOX 291000 AAB
TAFLGB
TAF AMD
KLGB 291037Z 2911/3006 VRB05KT P6SM SKC
     FM291300 VRB03KT 3SM BR OVC005
     FM291600 VRB03KT 6SM HZ BKN250
     FM291900 20007KT P6SM SCT250
     FM292300 29008KT P6SM SCT250
     FM300200 VRB05KT P6SM SCT250=



000
FTUS46 KLOX 291000 AAB
TAFLGB
TAF AMD
KLGB 291037Z 2911/3006 VRB05KT P6SM SKC
     FM291300 VRB03KT 3SM BR OVC005
     FM291600 VRB03KT 6SM HZ BKN250
     FM291900 20007KT P6SM SCT250
     FM292300 29008KT P6SM SCT250
     FM300200 VRB05KT P6SM SCT250=



000
FTUS46 KLOX 290900 AAA
TAFSBA
TAF AMD
KSBA 290948Z 2910/3006 VRB05KT P6SM BKN004
     FM291300 VRB03KT 4SM BR BKN004
     FM291700 16005KT P6SM SKC
     FM292000 22005KT P6SM SKC
     FM292300 25007KT P6SM SKC
     FM300300 VRB05KT P6SM SKC=



000
FTUS46 KLOX 290900 AAA
TAFLGB
TAF AMD
KLGB 290900Z 2909/3006 VRB05KT P6SM SKC
     FM291030 VRB03KT 4SM BR BKN007
     FM291200 VRB03KT 3SM BR OVC005
     FM291700 VRB03KT 6SM HZ BKN250
     FM291900 20007KT P6SM SCT250
     FM292300 29008KT P6SM SCT250
     FM300200 VRB05KT P6SM SCT250=



000
FTUS46 KLOX 290800 AAB
TAFLAX
TAF AMD
KLAX 290856Z 2909/3012 VRB05KT 1/4SM FG VV001
     FM291500 VRB03KT 2SM BR BKN006
     FM291700 23006KT 4SM HZ BKN250
     FM292000 25010KT P6SM SCT250
     FM300400 VRB05KT P6SM SCT250
     FM300700 VRB05KT 6SM BR SCT006=



000
FTUS46 KLOX 290800 AAA
TAFLAX
TAF AMD
KLAX 290817Z 2908/3012 VRB05KT 1/2SM FG OVC002
     FM291500 VRB03KT 2SM BR BKN006
     FM291700 23006KT 4SM HZ BKN250
     FM292000 25010KT P6SM SCT250
     FM300400 VRB05KT P6SM SCT250
     FM300700 VRB05KT 6SM BR SCT006=



000
FTUS46 KLOX 290800 AAA
TAFLAX
TAF AMD
KLAX 290817Z 2908/3012 VRB05KT 1/2SM FG OVC002
     FM291500 VRB03KT 2SM BR BKN006
     FM291700 23006KT 4SM HZ BKN250
     FM292000 25010KT P6SM SCT250
     FM300400 VRB05KT P6SM SCT250
     FM300700 VRB05KT 6SM BR SCT006=



000
FTUS46 KLOX 290500
TAFSMX
TAF
KSMX 290538Z 2906/3006 VRB03KT P6SM SCT004
     FM291300 VRB03KT 4SM BR BKN002
     FM291700 34006KT P6SM SCT005
     FM292100 31014KT P6SM SKC
     FM300300 VRB05KT P6SM SKC=



000
FTUS46 KLOX 290500
TAFSMX
TAF
KSMX 290538Z 2906/3006 VRB03KT P6SM SCT004
     FM291300 VRB03KT 4SM BR BKN002
     FM291700 34006KT P6SM SCT005
     FM292100 31014KT P6SM SKC
     FM300300 VRB05KT P6SM SKC=



000
FTUS46 KLOX 290500
TAFPRB
TAF
KPRB 290538Z 2906/3006 VRB05KT P6SM SCT003 SCT250
     FM292200 08009KT P6SM SKC
     FM300300 VRB05KT P6SM SKC=



000
FTUS46 KLOX 290500
TAFSBP
TAF
KSBP 290538Z 2906/3006 VRB05KT P6SM SCT250
     FM291900 31008KT P6SM SKC
     FM292100 31015KT P6SM SKC
     FM300200 VRB05KT P6SM SKC=



000
FTUS46 KLOX 290500
TAFSBA
TAF
KSBA 290538Z 2906/3006 VRB05KT P6SM SCT004
     FM291300 VRB03KT 4SM BR BKN004
     FM291700 16005KT P6SM SKC
     FM292000 22005KT P6SM SKC
     FM292300 25007KT P6SM SKC
     FM300300 VRB05KT P6SM SKC=



000
FTUS46 KLOX 290500
TAFSBA
TAF
KSBA 290538Z 2906/3006 VRB05KT P6SM SCT004
     FM291300 VRB03KT 4SM BR BKN004
     FM291700 16005KT P6SM SKC
     FM292000 22005KT P6SM SKC
     FM292300 25007KT P6SM SKC
     FM300300 VRB05KT P6SM SKC=



000
FTUS46 KLOX 290500
TAFPRB
TAF
KPRB 290538Z 2906/3006 VRB05KT P6SM SCT003 SCT250
     FM292200 08009KT P6SM SKC
     FM300300 VRB05KT P6SM SKC=



000
FTUS46 KLOX 290500
TAFSBP
TAF
KSBP 290538Z 2906/3006 VRB05KT P6SM SCT250
     FM291900 31008KT P6SM SKC
     FM292100 31015KT P6SM SKC
     FM300200 VRB05KT P6SM SKC=



000
FTUS46 KLOX 290500
TAFBUR
TAF
KBUR 290532Z 2906/3006 VRB05KT P6SM SCT250
     FM292100 18006KT P6SM SCT250
     FM300200 VRB05KT P6SM SCT250=



000
FTUS46 KLOX 290500
TAFPMD
TAF
KPMD 290532Z 2906/3006 29005KT P6SM SKC
     FM291600 VRB03KT P6SM SKC
     FM292000 28009KT P6SM SKC
     FM292200 27014G20KT P6SM SKC
     FM300500 28005KT P6SM SKC=



000
FTUS46 KLOX 290500
TAFLGB
TAF
KLGB 290532Z 2906/3006 VRB05KT P6SM SKC
     FM290900 VRB03KT 4SM BR BKN007
     FM291200 VRB03KT 3SM BR OVC005
     FM291700 VRB03KT 6SM HZ BKN250
     FM291900 20007KT P6SM SCT250
     FM292300 29008KT P6SM SCT250
     FM300200 VRB05KT P6SM SCT250=



000
FTUS46 KLOX 290500
TAFLAX
TAF
KLAX 290532Z 2906/3012 VRB05KT P6SM SCT007 SCT250
     FM290800 VRB03KT 5SM BR BKN007
     FM291100 VRB03KT 1 1/2SM BR OVC003
     FM291500 VRB03KT 2SM BR BKN006
     FM291700 23006KT 4SM HZ BKN250
     FM292000 25010KT P6SM SCT250
     FM300400 VRB05KT P6SM SCT250
     FM300700 VRB05KT 6SM BR SCT006=



000
FTUS46 KLOX 290500
TAFWJF
TAF
KWJF 290532Z 2906/3006 28012KT P6SM SKC
     FM291000 24007KT P6SM SKC
     FM292000 25011KT P6SM SKC
     FM292200 24016G22KT P6SM SKC
     FM300400 28010KT P6SM SKC=



000
FTUS46 KLOX 290500
TAFVNY
TAF
KVNY 290532Z 2906/3006 VRB05KT P6SM SKC
     FM292100 16007KT P6SM SCT250
     FM300300 VRB05KT P6SM SCT250=



000
FTUS46 KLOX 290500
TAFVNY
TAF
KVNY 290532Z 2906/3006 VRB05KT P6SM SKC
     FM292100 16007KT P6SM SCT250
     FM300300 VRB05KT P6SM SCT250=



000
FTUS46 KLOX 290500
TAFPMD
TAF
KPMD 290532Z 2906/3006 29005KT P6SM SKC
     FM291600 VRB03KT P6SM SKC
     FM292000 28009KT P6SM SKC
     FM292200 27014G20KT P6SM SKC
     FM300500 28005KT P6SM SKC=



000
FTUS46 KLOX 290500
TAFBUR
TAF
KBUR 290532Z 2906/3006 VRB05KT P6SM SCT250
     FM292100 18006KT P6SM SCT250
     FM300200 VRB05KT P6SM SCT250=



000
FTUS46 KLOX 290500
TAFLAX
TAF
KLAX 290532Z 2906/3012 VRB05KT P6SM SCT007 SCT250
     FM290800 VRB03KT 5SM BR BKN007
     FM291100 VRB03KT 1 1/2SM BR OVC003
     FM291500 VRB03KT 2SM BR BKN006
     FM291700 23006KT 4SM HZ BKN250
     FM292000 25010KT P6SM SCT250
     FM300400 VRB05KT P6SM SCT250
     FM300700 VRB05KT 6SM BR SCT006=



000
FTUS46 KLOX 290500
TAFWJF
TAF
KWJF 290532Z 2906/3006 28012KT P6SM SKC
     FM291000 24007KT P6SM SKC
     FM292000 25011KT P6SM SKC
     FM292200 24016G22KT P6SM SKC
     FM300400 28010KT P6SM SKC=



000
FTUS46 KLOX 290500
TAFLGB
TAF
KLGB 290532Z 2906/3006 VRB05KT P6SM SKC
     FM290900 VRB03KT 4SM BR BKN007
     FM291200 VRB03KT 3SM BR OVC005
     FM291700 VRB03KT 6SM HZ BKN250
     FM291900 20007KT P6SM SCT250
     FM292300 29008KT P6SM SCT250
     FM300200 VRB05KT P6SM SCT250=



000
FTUS46 KLOX 290300 AAA
TAFWJF
TAF AMD
KWJF 290303Z 2903/2924 27010KT P6SM SKC
     FM291000 24007KT P6SM SKC
     FM292000 25011KT P6SM SKC
     FM292200 24016G22KT P6SM SKC=



000
FTUS46 KLOX 290300 AAB
TAFLAX
TAF AMD
KLAX 290303Z 2903/3006 24008KT P6SM SCT007 SCT250
     FM290700 VRB03KT 5SM BR BKN007
     FM291000 VRB03KT 1 1/2SM BR OVC003
     FM291500 VRB03KT 2SM BR BKN006
     FM291700 23006KT 4SM HZ BKN250
     FM292000 25010KT P6SM SCT250
     FM300400 24006KT P6SM SCT250=



000
FTUS46 KLOX 290300 AAB
TAFLAX
TAF AMD
KLAX 290303Z 2903/3006 24008KT P6SM SCT007 SCT250
     FM290700 VRB03KT 5SM BR BKN007
     FM291000 VRB03KT 1 1/2SM BR OVC003
     FM291500 VRB03KT 2SM BR BKN006
     FM291700 23006KT 4SM HZ BKN250
     FM292000 25010KT P6SM SCT250
     FM300400 24006KT P6SM SCT250=



000
FTUS46 KLOX 290300 AAA
TAFPMD
TAF AMD
KPMD 290302Z 2903/2924 29005KT P6SM SKC
     FM290600 25008KT P6SM SKC
     FM291600 VRB03KT P6SM SKC
     FM292000 28009KT P6SM SKC
     FM292200 27014G20KT P6SM SKC=



000
FTUS46 KLOX 290300 AAA
TAFPMD
TAF AMD
KPMD 290302Z 2903/2924 29005KT P6SM SKC
     FM290600 25008KT P6SM SKC
     FM291600 VRB03KT P6SM SKC
     FM292000 28009KT P6SM SKC
     FM292200 27014G20KT P6SM SKC=



000
FTUS46 KLOX 290200 AAA
TAFLAX
TAF AMD
KLAX 290223Z 2902/3006 25008KT P6SM FEW005 SCT250
     FM290700 VRB03KT 5SM BR BKN007
     FM291000 VRB03KT 1 1/2SM BR OVC003
     FM291500 VRB03KT 2SM BR BKN006
     FM291700 23006KT 4SM HZ BKN250
     FM292000 25010KT P6SM SCT250
     FM300400 24006KT P6SM SCT250=



000
FTUS46 KLOX 282300
TAFLGB
TAF
KLGB 282336Z 2900/2924 30009KT P6SM SKC
     FM290400 VRB03KT P6SM SKC
     FM290600 VRB03KT 4SM BR BKN007
     FM291000 VRB03KT 3SM BR OVC005
     FM291700 VRB03KT 6SM HZ BKN250
     FM291900 20007KT P6SM SCT250
     FM292300 29008KT P6SM SCT250=



000
FTUS46 KLOX 282300
TAFWJF
TAF
KWJF 282336Z 2900/2924 23016G22KT P6SM SKC
     FM290300 25012KT P6SM SKC
     FM290600 24007KT P6SM SKC
     FM292000 25011KT P6SM SKC
     FM292200 24016G22KT P6SM SKC=



000
FTUS46 KLOX 282300
TAFSBA
TAF
KSBA 282336Z 2900/2924 24006KT P6SM SKC
     FM290200 VRB03KT P6SM SKC
     FM291800 16005KT P6SM SKC
     FM292000 22005KT P6SM SKC
     FM292300 25007KT P6SM SKC=



000
FTUS46 KLOX 282300
TAFSMX
TAF
KSMX 282336Z 2900/2924 32010KT P6SM SKC
     FM290200 30006KT P6SM SKC
     FM290400 VRB03KT P6SM SKC
     FM291800 34006KT P6SM SKC
     FM292100 31014KT P6SM SKC=



000
FTUS46 KLOX 282300
TAFVNY
TAF
KVNY 282336Z 2900/2924 18009KT P6SM SKC
     FM290300 VRB03KT P6SM SKC
     FM292100 16007KT P6SM SCT250=



000
FTUS46 KLOX 282300
TAFPMD
TAF
KPMD 282336Z 2900/2924 27017G23KT P6SM SKC
     FM290300 25012KT P6SM SKC
     FM290700 24007KT P6SM SKC
     FM291600 VRB03KT P6SM SKC
     FM292000 28009KT P6SM SKC
     FM292200 27014G20KT P6SM SKC=



000
FTUS46 KLOX 282300
TAFPRB
TAF
KPRB 282336Z 2900/2924 29008KT P6SM SCT250
     FM290400 VRB03KT P6SM SCT250
     FM292200 08009KT P6SM SKC=



000
FTUS46 KLOX 282300
TAFBUR
TAF
KBUR 282336Z 2900/2924 20009KT P6SM SKC
     FM290300 VRB03KT P6SM SKC
     FM292100 18006KT P6SM SCT250=



000
FTUS46 KLOX 282300
TAFSBA
TAF
KSBA 282336Z 2900/2924 24006KT P6SM SKC
     FM290200 VRB03KT P6SM SKC
     FM291800 16005KT P6SM SKC
     FM292000 22005KT P6SM SKC
     FM292300 25007KT P6SM SKC=



000
FTUS46 KLOX 282300
TAFLGB
TAF
KLGB 282336Z 2900/2924 30009KT P6SM SKC
     FM290400 VRB03KT P6SM SKC
     FM290600 VRB03KT 4SM BR BKN007
     FM291000 VRB03KT 3SM BR OVC005
     FM291700 VRB03KT 6SM HZ BKN250
     FM291900 20007KT P6SM SCT250
     FM292300 29008KT P6SM SCT250=



000
FTUS46 KLOX 282300
TAFLAX
TAF
KLAX 282336Z 2900/3006 26008KT P6SM FEW005 SCT250
     FM290300 VRB03KT P6SM SCT005 SCT250
     FM290700 VRB03KT 5SM BR BKN007
     FM291000 VRB03KT 1 1/2SM BR OVC003
     FM291500 VRB03KT 2SM BR BKN006
     FM291700 23006KT 4SM HZ BKN250
     FM292000 25010KT P6SM SCT250
     FM300400 24006KT P6SM SCT250=



000
FTUS46 KLOX 282300
TAFWJF
TAF
KWJF 282336Z 2900/2924 23016G22KT P6SM SKC
     FM290300 25012KT P6SM SKC
     FM290600 24007KT P6SM SKC
     FM292000 25011KT P6SM SKC
     FM292200 24016G22KT P6SM SKC=



000
FTUS46 KLOX 282300
TAFLAX
TAF
KLAX 282336Z 2900/3006 26008KT P6SM FEW005 SCT250
     FM290300 VRB03KT P6SM SCT005 SCT250
     FM290700 VRB03KT 5SM BR BKN007
     FM291000 VRB03KT 1 1/2SM BR OVC003
     FM291500 VRB03KT 2SM BR BKN006
     FM291700 23006KT 4SM HZ BKN250
     FM292000 25010KT P6SM SCT250
     FM300400 24006KT P6SM SCT250=



000
FTUS46 KLOX 282300
TAFSBP
TAF
KSBP 282336Z 2900/2924 33011KT P6SM SCT250
     FM290300 30006KT P6SM SCT250
     FM290600 VRB03KT P6SM SCT250
     FM291900 31008KT P6SM SKC
     FM292100 31015KT P6SM SKC=



000
FTUS46 KLOX 282300
TAFSBP
TAF
KSBP 282336Z 2900/2924 33011KT P6SM SCT250
     FM290300 30006KT P6SM SCT250
     FM290600 VRB03KT P6SM SCT250
     FM291900 31008KT P6SM SKC
     FM292100 31015KT P6SM SKC=



000
FTUS46 KLOX 282300
TAFVNY
TAF
KVNY 282336Z 2900/2924 18009KT P6SM SKC
     FM290300 VRB03KT P6SM SKC
     FM292100 16007KT P6SM SCT250=



000
FTUS46 KLOX 282300
TAFPMD
TAF
KPMD 282336Z 2900/2924 27017G23KT P6SM SKC
     FM290300 25012KT P6SM SKC
     FM290700 24007KT P6SM SKC
     FM291600 VRB03KT P6SM SKC
     FM292000 28009KT P6SM SKC
     FM292200 27014G20KT P6SM SKC=



000
FTUS46 KLOX 282300
TAFPRB
TAF
KPRB 282336Z 2900/2924 29008KT P6SM SCT250
     FM290400 VRB03KT P6SM SCT250
     FM292200 08009KT P6SM SKC=



000
FTUS46 KLOX 282300
TAFSMX
TAF
KSMX 282336Z 2900/2924 32010KT P6SM SKC
     FM290200 30006KT P6SM SKC
     FM290400 VRB03KT P6SM SKC
     FM291800 34006KT P6SM SKC
     FM292100 31014KT P6SM SKC=



000
FTUS46 KLOX 282300
TAFBUR
TAF
KBUR 282336Z 2900/2924 20009KT P6SM SKC
     FM290300 VRB03KT P6SM SKC
     FM292100 18006KT P6SM SCT250=



000
FTUS46 KLOX 282000 AAC
TAFLAX
TAF AMD
KLAX 282034Z 2821/2924 26012KT P6SM FEW005
     FM290300 VRB03KT P6SM SKC
     FM290700 VRB03KT 5SM BR BKN007
     FM291100 VRB03KT 1SM BR OVC003
     FM291700 23006KT 5SM HZ SCT004 BKN250
     FM292000 25010KT 6SM HZ SCT250=



000
FTUS46 KLOX 282000 AAB
TAFLAX
TAF AMD
KLAX 282015Z 2820/2924 26012KT P6SM FEW005
     FM290400 VRB03KT P6SM SKC
     FM290700 VRB03KT 5SM BR BKN007
     FM291100 VRB03KT 1SM BR OVC003
     FM291700 23006KT 5SM HZ SCT004 BKN250
     FM292000 25010KT 6SM HZ SCT250=



000
FTUS46 KLOX 282000 AAB
TAFLAX
TAF AMD
KLAX 282015Z 2820/2924 26012KT P6SM FEW005
     FM290400 VRB03KT P6SM SKC
     FM290700 VRB03KT 5SM BR BKN007
     FM291100 VRB03KT 1SM BR OVC003
     FM291700 23006KT 5SM HZ SCT004 BKN250
     FM292000 25010KT 6SM HZ SCT250=



000
FTUS46 KLOX 281900 AAA
TAFLAX
TAF AMD
KLAX 281908Z 2819/2924 25012KT 6SM HZ SCT007
      TEMPO 2819/2821 4SM BR BKN006
     FM290400 VRB03KT P6SM SKC
     FM290700 VRB03KT 5SM BR BKN007
     FM291100 VRB03KT 1SM BR OVC003
     FM291700 23006KT 5SM HZ SCT004 BKN250
     FM292000 25010KT 6SM HZ SCT250=



000
FTUS46 KLOX 281700
TAFPRB
TAF
KPRB 281735Z 2818/2918 33003KT P6SM SKC
     FM282000 06007KT P6SM SCT250
     FM290400 VRB03KT P6SM SCT250=



000
FTUS46 KLOX 281700
TAFVNY
TAF
KVNY 281735Z 2818/2918 00000KT P6SM SKC
     FM282100 14007KT P6SM SKC
     FM290300 VRB03KT P6SM SKC
     FM291200 VRB03KT 5SM BR SCT012=



000
FTUS46 KLOX 281700
TAFWJF
TAF
KWJF 281735Z 2818/2918 11004KT P6SM SKC
     FM282100 24015G20KT P6SM SKC
     FM290300 25012KT P6SM SKC
     FM290700 24007KT P6SM SKC
     FM291100 VRB03KT P6SM SCT250=



000
FTUS46 KLOX 281700
TAFWJF
TAF
KWJF 281735Z 2818/2918 11004KT P6SM SKC
     FM282100 24015G20KT P6SM SKC
     FM290300 25012KT P6SM SKC
     FM290700 24007KT P6SM SKC
     FM291100 VRB03KT P6SM SCT250=



000
FTUS46 KLOX 281700
TAFBUR
TAF
KBUR 281735Z 2818/2918 00000KT P6SM SKC
     FM282100 18009KT P6SM SKC
     FM290300 VRB03KT P6SM SKC
     FM291200 VRB03KT 5SM BR SCT012=



000
FTUS46 KLOX 281700
TAFVNY
TAF
KVNY 281735Z 2818/2918 00000KT P6SM SKC
     FM282100 14007KT P6SM SKC
     FM290300 VRB03KT P6SM SKC
     FM291200 VRB03KT 5SM BR SCT012=



000
FTUS46 KLOX 281700
TAFSBA
TAF
KSBA 281735Z 2818/2918 14004KT P6SM SKC
     FM282100 24008KT P6SM SKC
     FM290200 VRB03KT P6SM SKC
     FM291100 08005KT 5SM BR BKN005=



000
FTUS46 KLOX 281700
TAFSMX
TAF
KSMX 281735Z 2818/2918 31004KT P6SM SKC
     FM281900 30014KT P6SM SKC
     FM290200 30007KT P6SM SCT005
     FM290300 30004KT 5SM BR BKN005
     FM290500 VRB03KT 1/2SM FG VV001
     FM291400 VRB03KT 5SM BR SCT005=



000
FTUS46 KLOX 281700
TAFSBP
TAF
KSBP 281735Z 2818/2918 VRB03KT P6SM SKC
     FM282000 30015KT P6SM SKC
     FM290300 30006KT P6SM SKC
     FM290600 VRB03KT P6SM SKC
     FM291200 VRB03KT 1/2SM FG VV001
     FM291500 VRB03KT P6SM SKC=



000
FTUS46 KLOX 281700
TAFLGB
TAF
KLGB 281735Z 2818/2918 16006KT P6SM SKC
     FM282300 29010KT P6SM SKC
     FM290400 VRB03KT P6SM SKC
     FM290900 VRB03KT 4SM BR BKN007
     FM291100 VRB03KT 3SM BR OVC005=



000
FTUS46 KLOX 281700
TAFLAX
TAF
KLAX 281735Z 2818/2924 12004KT 4SM HZ FEW007
     FM281900 25012KT 6SM HZ SKC
     FM290400 VRB03KT P6SM SKC
     FM290700 VRB03KT 5SM BR BKN007
     FM291100 VRB03KT 1SM BR OVC003
     FM291700 23006KT 5SM HZ SCT004 BKN250
     FM292000 25010KT 6SM HZ SCT250=



000
FTUS46 KLOX 281700
TAFPMD
TAF
KPMD 281735Z 2818/2918 11003KT P6SM SKC
     FM282100 25015G20KT P6SM SKC
     FM290300 25012KT P6SM SKC
     FM290700 24007KT P6SM SKC
     FM291100 VRB03KT P6SM SCT250=



000
FTUS46 KLOX 281700
TAFLAX
TAF
KLAX 281735Z 2818/2924 12004KT 4SM HZ FEW007
     FM281900 25012KT 6SM HZ SKC
     FM290400 VRB03KT P6SM SKC
     FM290700 VRB03KT 5SM BR BKN007
     FM291100 VRB03KT 1SM BR OVC003
     FM291700 23006KT 5SM HZ SCT004 BKN250
     FM292000 25010KT 6SM HZ SCT250=



000
FTUS46 KLOX 281700
TAFPRB
TAF
KPRB 281735Z 2818/2918 33003KT P6SM SKC
     FM282000 06007KT P6SM SCT250
     FM290400 VRB03KT P6SM SCT250=



000
FTUS46 KLOX 281700
TAFBUR
TAF
KBUR 281735Z 2818/2918 00000KT P6SM SKC
     FM282100 18009KT P6SM SKC
     FM290300 VRB03KT P6SM SKC
     FM291200 VRB03KT 5SM BR SCT012=



000
FTUS46 KLOX 281700
TAFPMD
TAF
KPMD 281735Z 2818/2918 11003KT P6SM SKC
     FM282100 25015G20KT P6SM SKC
     FM290300 25012KT P6SM SKC
     FM290700 24007KT P6SM SKC
     FM291100 VRB03KT P6SM SCT250=



000
FTUS46 KLOX 281700
TAFSBP
TAF
KSBP 281735Z 2818/2918 VRB03KT P6SM SKC
     FM282000 30015KT P6SM SKC
     FM290300 30006KT P6SM SKC
     FM290600 VRB03KT P6SM SKC
     FM291200 VRB03KT 1/2SM FG VV001
     FM291500 VRB03KT P6SM SKC=



000
FTUS46 KLOX 281700
TAFSBA
TAF
KSBA 281735Z 2818/2918 14004KT P6SM SKC
     FM282100 24008KT P6SM SKC
     FM290200 VRB03KT P6SM SKC
     FM291100 08005KT 5SM BR BKN005=



000
FTUS46 KLOX 281700
TAFSMX
TAF
KSMX 281735Z 2818/2918 31004KT P6SM SKC
     FM281900 30014KT P6SM SKC
     FM290200 30007KT P6SM SCT005
     FM290300 30004KT 5SM BR BKN005
     FM290500 VRB03KT 1/2SM FG VV001
     FM291400 VRB03KT 5SM BR SCT005=



000
FTUS46 KLOX 281700
TAFLGB
TAF
KLGB 281735Z 2818/2918 16006KT P6SM SKC
     FM282300 29010KT P6SM SKC
     FM290400 VRB03KT P6SM SKC
     FM290900 VRB03KT 4SM BR BKN007
     FM291100 VRB03KT 3SM BR OVC005=



000
FTUS46 KLOX 281600 AAB
TAFSMX
TAF AMD
KSMX 281635Z 2817/2912 00000KT 5SM BR SCT002
     FM281730 VRB03KT 6SM HZ SKC
     FM281800 VRB03KT P6SM SKC
     FM281900 30014KT P6SM SKC
     FM290200 30006KT P6SM SKC
     FM290500 30007KT P6SM BKN005
     FM290900 VRB03KT 1/2SM FG VV001=



000
FTUS46 KLOX 281600 AAB
TAFSMX
TAF AMD
KSMX 281635Z 2817/2912 00000KT 5SM BR SCT002
     FM281730 VRB03KT 6SM HZ SKC
     FM281800 VRB03KT P6SM SKC
     FM281900 30014KT P6SM SKC
     FM290200 30006KT P6SM SKC
     FM290500 30007KT P6SM BKN005
     FM290900 VRB03KT 1/2SM FG VV001=



000
FTUS46 KLOX 281600 AAD
TAFPRB
TAF AMD
KPRB 281630Z 2817/2912 34004KT 3SM BR BKN003
     FM281730 VRB03KT P6SM SCT005
     FM282200 06007KT P6SM SCT250
     FM290400 VRB03KT P6SM SCT250
     FM291000 VRB03KT 4SM BR BKN005=



000
FTUS46 KLOX 281600 AAB
TAFLGB
TAF AMD
KLGB 281602Z 2816/2912 VRB03KT 6SM BR BKN010
     FM281630 VRB03KT P6SM FEW010
     FM281800 18006KT P6SM SKC
     FM282300 29010KT P6SM SKC
     FM290400 VRB03KT P6SM SKC
     FM290900 VRB03KT 4SM BR BKN007
     FM291100 VRB03KT 3SM BR OVC005=



000
FTUS46 KLOX 281600 AAB
TAFLGB
TAF AMD
KLGB 281602Z 2816/2912 VRB03KT 6SM BR BKN010
     FM281630 VRB03KT P6SM FEW010
     FM281800 18006KT P6SM SKC
     FM282300 29010KT P6SM SKC
     FM290400 VRB03KT P6SM SKC
     FM290900 VRB03KT 4SM BR BKN007
     FM291100 VRB03KT 3SM BR OVC005=



000
FTUS46 KLOX 281500 AAG
TAFLAX
TAF AMD
KLAX 281557Z 2816/2918 VRB03KT 3SM BR SCT005
     FM281630 VRB03KT 5SM BR FEW005
     FM281700 21006KT 5SM HZ SKC
     FM282000 25012KT P6SM SKC
     FM290400 VRB03KT P6SM SKC
     FM290800 VRB03KT 4SM BR BKN007
     FM291300 VRB03KT 2SM BR OVC004
     FM291700 23006KT 5SM HZ BKN008=



000
FTUS46 KLOX 281500 AAA
TAFSMX
TAF AMD
KSMX 281526Z 2815/2912 00000KT 1SM BR VV002
     FM281700 VRB03KT 4SM BR BKN005
     FM281800 VRB03KT P6SM SKC
     FM281900 30014KT P6SM SKC
     FM290200 30006KT P6SM SKC
     FM290500 30007KT P6SM BKN005
     FM290900 VRB03KT 1/2SM FG VV001=



000
FTUS46 KLOX 281500 AAC
TAFPRB
TAF AMD
KPRB 281525Z 2815/2912 32003KT 3/4SM BR VV002
     FM281630 VRB03KT P6SM SCT005
     FM282200 06007KT P6SM SCT250
     FM290400 VRB03KT P6SM SCT250
     FM291000 VRB03KT 4SM BR BKN005=



000
FTUS46 KLOX 281500 AAC
TAFPRB
TAF AMD
KPRB 281525Z 2815/2912 32003KT 3/4SM BR VV002
     FM281630 VRB03KT P6SM SCT005
     FM282200 06007KT P6SM SCT250
     FM290400 VRB03KT P6SM SCT250
     FM291000 VRB03KT 4SM BR BKN005=



000
FTUS46 KLOX 281500 AAF
TAFLAX
TAF AMD
KLAX 281523Z 2815/2918 VRB03KT 3SM BR BKN005
     FM281600 VRB03KT 5SM BR BKN005
     FM281700 21006KT 5SM HZ SKC
     FM282000 25012KT P6SM SKC
     FM290400 VRB03KT P6SM SKC
     FM290800 VRB03KT 4SM BR BKN007
     FM291300 VRB03KT 2SM BR OVC004
     FM291700 23006KT 5SM HZ BKN008=



000
FTUS46 KLOX 281500 AAE
TAFLAX
TAF AMD
KLAX 281502Z 2815/2918 VRB03KT 3SM BR BKN003
     FM281600 VRB03KT 5SM BR SCT005
     FM281700 21006KT 5SM HZ SKC
     FM282000 25012KT P6SM SKC
     FM290400 VRB03KT P6SM SKC
     FM290800 VRB03KT 4SM BR BKN007
     FM291300 VRB03KT 2SM BR OVC004
     FM291700 23006KT 5SM HZ BKN008=



000
FTUS46 KLOX 281500 AAE
TAFLAX
TAF AMD
KLAX 281502Z 2815/2918 VRB03KT 3SM BR BKN003
     FM281600 VRB03KT 5SM BR SCT005
     FM281700 21006KT 5SM HZ SKC
     FM282000 25012KT P6SM SKC
     FM290400 VRB03KT P6SM SKC
     FM290800 VRB03KT 4SM BR BKN007
     FM291300 VRB03KT 2SM BR OVC004
     FM291700 23006KT 5SM HZ BKN008=



000
FTUS46 KLOX 281400 AAA
TAFSBP
TAF AMD
KSBP 281441Z 2815/2912 VRB03KT P6SM SKC
     FM282000 30015KT P6SM SKC
     FM290300 30006KT P6SM SKC
     FM290600 VRB03KT 5SM BR BKN005
     FM291000 VRB03KT 1SM BR OVC003=



000
FTUS46 KLOX 281400 AAA
TAFSBP
TAF AMD
KSBP 281441Z 2815/2912 VRB03KT P6SM SKC
     FM282000 30015KT P6SM SKC
     FM290300 30006KT P6SM SKC
     FM290600 VRB03KT 5SM BR BKN005
     FM291000 VRB03KT 1SM BR OVC003=



000
FTUS46 KLOX 281400 AAD
TAFLAX
TAF AMD
KLAX 281439Z 2815/2918 VRB03KT 3SM BR BKN003
     FM281530 VRB03KT 5SM BR SCT005
     FM281700 21006KT 5SM HZ SKC
     FM282000 25012KT P6SM SKC
     FM290400 VRB03KT P6SM SKC
     FM290800 VRB03KT 4SM BR BKN007
     FM291300 VRB03KT 2SM BR OVC004
     FM291700 23006KT 5SM HZ BKN008=



000
FTUS46 KLOX 281300 AAB
TAFPRB
TAF AMD
KPRB 281346Z 2814/2912 VRB03KT 1/2SM FG VV001
     FM281600 VRB03KT 5SM HZ SCT005
     FM282200 06007KT P6SM SCT250
     FM290400 VRB03KT P6SM SCT250
     FM291000 VRB03KT 4SM BR BKN005=



000
FTUS46 KLOX 281300 AAC
TAFLAX
TAF AMD
KLAX 281345Z 2814/2918 08005KT 1 1/2SM BR OVC002
     FM281430 VRB03KT 3SM BR BKN003
     FM281530 VRB03KT 5SM BR SCT005
     FM281700 21006KT 5SM HZ SKC
     FM282000 25012KT P6SM SKC
     FM290400 VRB03KT P6SM SKC
     FM290800 VRB03KT 4SM BR BKN007
     FM291300 VRB03KT 2SM BR OVC004
     FM291700 23006KT 5SM HZ BKN008=



000
FTUS46 KLOX 281300 AAC
TAFLAX
TAF AMD
KLAX 281345Z 2814/2918 08005KT 1 1/2SM BR OVC002
     FM281430 VRB03KT 3SM BR BKN003
     FM281530 VRB03KT 5SM BR SCT005
     FM281700 21006KT 5SM HZ SKC
     FM282000 25012KT P6SM SKC
     FM290400 VRB03KT P6SM SKC
     FM290800 VRB03KT 4SM BR BKN007
     FM291300 VRB03KT 2SM BR OVC004
     FM291700 23006KT 5SM HZ BKN008=



000
FTUS46 KLOX 281300 AAB
TAFLAX
TAF AMD
KLAX 281321Z 2813/2918 08005KT 1/2SM FG VV001
     FM281430 VRB03KT 3SM BR BKN003
     FM281530 VRB03KT 5SM BR SCT005
     FM281700 21006KT 5SM HZ SKC
     FM282000 25012KT P6SM SKC
     FM290400 VRB03KT P6SM SKC
     FM290800 VRB03KT 4SM BR BKN007
     FM291300 VRB03KT 2SM BR OVC004
     FM291700 23006KT 5SM HZ BKN008=



000
FTUS46 KLOX 281300 AAB
TAFLAX
TAF AMD
KLAX 281321Z 2813/2918 08005KT 1/2SM FG VV001
     FM281430 VRB03KT 3SM BR BKN003
     FM281530 VRB03KT 5SM BR SCT005
     FM281700 21006KT 5SM HZ SKC
     FM282000 25012KT P6SM SKC
     FM290400 VRB03KT P6SM SKC
     FM290800 VRB03KT 4SM BR BKN007
     FM291300 VRB03KT 2SM BR OVC004
     FM291700 23006KT 5SM HZ BKN008=



000
FTUS46 KLOX 281300 AAA
TAFLGB
TAF AMD
KLGB 281303Z 2813/2912 VRB03KT P6SM OVC008
     FM281600 VRB03KT 5SM HZ SCT008
     FM281800 18006KT P6SM SKC
     FM282300 29010KT P6SM SKC
     FM290400 VRB03KT P6SM SKC
     FM290900 VRB03KT 4SM BR BKN007
     FM291100 VRB03KT 3SM BR OVC005=



000
FTUS46 KLOX 281300 AAA
TAFLGB
TAF AMD
KLGB 281303Z 2813/2912 VRB03KT P6SM OVC008
     FM281600 VRB03KT 5SM HZ SCT008
     FM281800 18006KT P6SM SKC
     FM282300 29010KT P6SM SKC
     FM290400 VRB03KT P6SM SKC
     FM290900 VRB03KT 4SM BR BKN007
     FM291100 VRB03KT 3SM BR OVC005=



000
FTUS46 KLOX 281300 AAA
TAFLAX
TAF AMD
KLAX 281302Z 2813/2918 08005KT 1/2SM FG VV001
     FM281500 VRB03KT 3SM BR BKN003
     FM281600 VRB03KT 5SM BR OVC005
     FM281800 21006KT 6SM HZ SKC
     FM282000 25012KT P6SM SKC
     FM290400 VRB03KT P6SM SKC
     FM290800 VRB03KT 4SM BR BKN007
     FM291300 VRB03KT 2SM BR OVC004
     FM291700 23006KT 5SM HZ BKN008=



000
FTUS46 KLOX 281300 AAA
TAFLAX
TAF AMD
KLAX 281302Z 2813/2918 08005KT 1/2SM FG VV001
     FM281500 VRB03KT 3SM BR BKN003
     FM281600 VRB03KT 5SM BR OVC005
     FM281800 21006KT 6SM HZ SKC
     FM282000 25012KT P6SM SKC
     FM290400 VRB03KT P6SM SKC
     FM290800 VRB03KT 4SM BR BKN007
     FM291300 VRB03KT 2SM BR OVC004
     FM291700 23006KT 5SM HZ BKN008=



000
FTUS46 KLOX 281100 AAA
TAFPRB
TAF AMD
KPRB 281149Z 2812/2912 VRB03KT 5SM BR OVC003
     FM281400 VRB03KT 1/2SM FG VV001
     FM281600 VRB03KT 5SM HZ SCT005
     FM282200 06007KT P6SM SCT250
     FM290400 VRB03KT P6SM SCT250
     FM291000 VRB03KT 4SM BR BKN005=



000
FTUS46 KLOX 281100 AAA
TAFPRB
TAF AMD
KPRB 281149Z 2812/2912 VRB03KT 5SM BR OVC003
     FM281400 VRB03KT 1/2SM FG VV001
     FM281600 VRB03KT 5SM HZ SCT005
     FM282200 06007KT P6SM SCT250
     FM290400 VRB03KT P6SM SCT250
     FM291000 VRB03KT 4SM BR BKN005=



000
FTUS46 KLOX 281100 RRA
TAFPRB
TAF
KPRB 281147Z 2812/2912 31008KT 5SM BR OVC005
     FM281400 VRB03KT 1/2SM FG VV001
     FM281600 VRB03KT 5SM HZ SCT005
     FM282200 06007KT P6SM SCT250
     FM290400 VRB03KT P6SM SCT250
     FM291000 VRB03KT 4SM BR BKN005=



000
FTUS46 KLOX 281100 RRA
TAFSBP
TAF
KSBP 281147Z 2812/2912 VRB03KT 1/4SM FG VV001
     FM281600 VRB03KT 5SM HZ SCT006
     FM281800 VRB03KT P6SM SKC
     FM282000 30015KT P6SM SKC
     FM290300 30006KT P6SM SKC
     FM290600 VRB03KT 5SM BR BKN005
     FM291000 VRB03KT 1SM BR OVC003=



000
FTUS46 KLOX 281100 RRA
TAFVNY
TAF
KVNY 281147Z 2812/2912 VRB03KT P6SM SKC
     FM282100 14007KT P6SM SKC
     FM290300 VRB03KT P6SM SKC=



000
FTUS46 KLOX 281100 RRA
TAFBUR
TAF
KBUR 281147Z 2812/2912 VRB03KT P6SM SKC
     FM282100 18009KT P6SM SKC
     FM290300 VRB03KT P6SM SKC=



000
FTUS46 KLOX 281100 RRA
TAFLAX
TAF
KLAX 281147Z 2812/2918 VRB03KT P6SM SKC
     FM281300 VRB03KT 3SM BR BKN003
     FM281500 VRB03KT 5SM BR OVC005
     FM281800 21006KT 6SM HZ SKC
     FM282000 25012KT P6SM SKC
     FM290400 VRB03KT P6SM SKC
     FM290800 VRB03KT 4SM BR BKN007
     FM291300 VRB03KT 2SM BR OVC004
     FM291700 23006KT 5SM HZ BKN008=



000
FTUS46 KLOX 281100 RRA
TAFWJF
TAF
KWJF 281147Z 2812/2912 25010KT P6SM SKC
     FM282100 24018G25KT P6SM SKC
     FM290300 25012KT P6SM SKC=



000
FTUS46 KLOX 281100 RRA
TAFPMD
TAF
KPMD 281147Z 2812/2912 23007KT P6SM SKC
     FM282100 25017G25KT P6SM SKC
     FM290300 25012KT P6SM SKC
     FM290700 24007KT P6SM SKC=



000
FTUS46 KLOX 281100 RRA
TAFSBA
TAF
KSBA 281147Z 2812/2912 03005KT P6SM SKC
     FM281800 16006KT P6SM SKC
     FM282100 24008KT P6SM SKC
     FM290200 VRB03KT P6SM SKC
     FM291100 08005KT 5SM BR BKN005=



000
FTUS46 KLOX 281100 RRA
TAFSMX
TAF
KSMX 281147Z 2812/2912 VRB03KT 4SM BR OVC002
     FM281400 VRB03KT 1/2SM FG VV001
     FM281600 VRB03KT 4SM BR OVC005
     FM281700 VRB03KT P6SM SKC
     FM281900 30014KT P6SM SKC
     FM290200 30006KT P6SM SKC
     FM290500 30007KT P6SM BKN005
     FM290900 VRB03KT 1/2SM FG VV001=



000
FTUS46 KLOX 281100 RRA
TAFLAX
TAF
KLAX 281147Z 2812/2918 VRB03KT P6SM SKC
     FM281300 VRB03KT 3SM BR BKN003
     FM281500 VRB03KT 5SM BR OVC005
     FM281800 21006KT 6SM HZ SKC
     FM282000 25012KT P6SM SKC
     FM290400 VRB03KT P6SM SKC
     FM290800 VRB03KT 4SM BR BKN007
     FM291300 VRB03KT 2SM BR OVC004
     FM291700 23006KT 5SM HZ BKN008=



000
FTUS46 KLOX 281100 RRA
TAFBUR
TAF
KBUR 281147Z 2812/2912 VRB03KT P6SM SKC
     FM282100 18009KT P6SM SKC
     FM290300 VRB03KT P6SM SKC=



000
FTUS46 KLOX 281100 RRA
TAFVNY
TAF
KVNY 281147Z 2812/2912 VRB03KT P6SM SKC
     FM282100 14007KT P6SM SKC
     FM290300 VRB03KT P6SM SKC=



000
FTUS46 KLOX 281100 RRA
TAFWJF
TAF
KWJF 281147Z 2812/2912 25010KT P6SM SKC
     FM282100 24018G25KT P6SM SKC
     FM290300 25012KT P6SM SKC=



000
FTUS46 KLOX 281100 RRA
TAFSBP
TAF
KSBP 281147Z 2812/2912 VRB03KT 1/4SM FG VV001
     FM281600 VRB03KT 5SM HZ SCT006
     FM281800 VRB03KT P6SM SKC
     FM282000 30015KT P6SM SKC
     FM290300 30006KT P6SM SKC
     FM290600 VRB03KT 5SM BR BKN005
     FM291000 VRB03KT 1SM BR OVC003=



000
FTUS46 KLOX 281100 RRA
TAFPRB
TAF
KPRB 281147Z 2812/2912 31008KT 5SM BR OVC005
     FM281400 VRB03KT 1/2SM FG VV001
     FM281600 VRB03KT 5SM HZ SCT005
     FM282200 06007KT P6SM SCT250
     FM290400 VRB03KT P6SM SCT250
     FM291000 VRB03KT 4SM BR BKN005=



000
FTUS46 KLOX 281100 RRA
TAFLGB
TAF
KLGB 281147Z 2812/2912 VRB03KT P6SM SCT006
     FM281300 VRB03KT 4SM BR OVC005
     FM281600 VRB03KT 5SM HZ SCT008
     FM281800 18006KT P6SM SKC
     FM282300 29010KT P6SM SKC
     FM290400 VRB03KT P6SM SKC
     FM290900 VRB03KT 4SM BR BKN007
     FM291100 VRB03KT 3SM BR OVC005=



000
FTUS46 KLOX 281100 RRA
TAFPMD
TAF
KPMD 281147Z 2812/2912 23007KT P6SM SKC
     FM282100 25017G25KT P6SM SKC
     FM290300 25012KT P6SM SKC
     FM290700 24007KT P6SM SKC=



000
FTUS46 KLOX 281100 RRA
TAFSBA
TAF
KSBA 281147Z 2812/2912 03005KT P6SM SKC
     FM281800 16006KT P6SM SKC
     FM282100 24008KT P6SM SKC
     FM290200 VRB03KT P6SM SKC
     FM291100 08005KT 5SM BR BKN005=



000
FTUS46 KLOX 281100 RRA
TAFSMX
TAF
KSMX 281147Z 2812/2912 VRB03KT 4SM BR OVC002
     FM281400 VRB03KT 1/2SM FG VV001
     FM281600 VRB03KT 4SM BR OVC005
     FM281700 VRB03KT P6SM SKC
     FM281900 30014KT P6SM SKC
     FM290200 30006KT P6SM SKC
     FM290500 30007KT P6SM BKN005
     FM290900 VRB03KT 1/2SM FG VV001=



000
FTUS46 KLOX 281000 AAA
TAFPRB
TAF AMD
KPRB 281055Z 2811/2906 31008KT P6SM BKN005
     FM281700 VRB03KT P6SM SKC
     FM282200 06007KT P6SM SCT250
     FM290400 VRB03KT P6SM SCT250=



000
FTUS46 KLOX 281000 AAA
TAFPRB
TAF AMD
KPRB 281055Z 2811/2906 31008KT P6SM BKN005
     FM281700 VRB03KT P6SM SKC
     FM282200 06007KT P6SM SCT250
     FM290400 VRB03KT P6SM SCT250=



000
FTUS46 KLOX 281000 AAA
TAFSBP
TAF AMD
KSBP 281038Z 2811/2906 VRB03KT 1/4SM FG VV001
     FM281200 VRB03KT 3SM BR OVC004
     FM281700 VRB03KT P6SM SCT250
     FM281900 30015KT P6SM SCT250
     FM290300 30006KT 4SM BR BKN007=



000
FTUS46 KLOX 281000 AAA
TAFSBP
TAF AMD
KSBP 281038Z 2811/2906 VRB03KT 1/4SM FG VV001
     FM281200 VRB03KT 3SM BR OVC004
     FM281700 VRB03KT P6SM SCT250
     FM281900 30015KT P6SM SCT250
     FM290300 30006KT 4SM BR BKN007=



000
FTUS46 KLOX 281000 AAA
TAFLAX
TAF AMD
KLAX 281024Z 2810/2912 VRB03KT P6SM SKC
     FM281200 VRB03KT 4SM BR BKN007
     FM281800 21006KT 6SM HZ SCT250
     FM282000 25010KT P6SM SCT250
     FM290400 VRB03KT P6SM SCT250
     FM290900 VRB03KT 4SM BR BKN010=



    US Dept of Commerce
    National Oceanic and Atmospheric Administration
    National Weather Service
    1325 East West Highway
    Silver Spring, MD 20910
    Page Author: NWS Internet Services Team
Disclaimer
Information Quality
Credits
Glossary
Privacy Policy
Freedom of Information Act (FOIA)
About Us
Career Opportunities